<?xml version="1.0" encoding="UTF-8" standalone="no" ?>
<gpx xmlns="http://www.topografix.com/GPX/1/1" xmlns:xsi="http://www.w3.org/2001/XMLSchema-instance" xsi:schemaLocation="http://www.topografix.com/GPX/1/1 http://www.topografix.com/GPX/1/1/gpx.xsd" version="1.1" creator="VisuGPX - https://www.visugpx.com">
  <metadata>
    <name>Marche Populaire de Vireux-wallerand 2015</name>
  </metadata>
  <trk>
    <name><![CDATA[Marche Populaire de Vireux-wallerand]]></name>
    <trkseg>
      <trkpt lat="50.06798" lon="4.72947">
        <ele>177.096</ele>
        <time>2015-09-13T06:13:07Z</time>
      </trkpt>
      <trkpt lat="50.0679" lon="4.72942">
        <ele>177.031</ele>
        <time>2015-09-13T06:13:16Z</time>
      </trkpt>
      <trkpt lat="50.06781" lon="4.72937">
        <ele>178.024</ele>
        <time>2015-09-13T06:13:24Z</time>
      </trkpt>
      <trkpt lat="50.06772" lon="4.72939">
        <ele>172.008</ele>
        <time>2015-09-13T06:13:30Z</time>
      </trkpt>
      <trkpt lat="50.06762" lon="4.72937">
        <ele>173.01</ele>
        <time>2015-09-13T06:13:40Z</time>
      </trkpt>
      <trkpt lat="50.06753" lon="4.72932">
        <ele>175.059</ele>
        <time>2015-09-13T06:13:49Z</time>
      </trkpt>
      <trkpt lat="50.06743" lon="4.72927">
        <ele>177.037</ele>
        <time>2015-09-13T06:13:57Z</time>
      </trkpt>
      <trkpt lat="50.06735" lon="4.7292">
        <ele>177.07</ele>
        <time>2015-09-13T06:14:04Z</time>
      </trkpt>
      <trkpt lat="50.06725" lon="4.7292">
        <ele>171.074</ele>
        <time>2015-09-13T06:14:15Z</time>
      </trkpt>
      <trkpt lat="50.06718" lon="4.72911">
        <ele>179.053</ele>
        <time>2015-09-13T06:14:20Z</time>
      </trkpt>
      <trkpt lat="50.06709" lon="4.72906">
        <ele>176.051</ele>
        <time>2015-09-13T06:14:29Z</time>
      </trkpt>
      <trkpt lat="50.06699" lon="4.72902">
        <ele>171.032</ele>
        <time>2015-09-13T06:14:39Z</time>
      </trkpt>
      <trkpt lat="50.06691" lon="4.72894">
        <ele>176.071</ele>
        <time>2015-09-13T06:14:48Z</time>
      </trkpt>
      <trkpt lat="50.06688" lon="4.7288">
        <ele>172.041</ele>
        <time>2015-09-13T06:14:58Z</time>
      </trkpt>
      <trkpt lat="50.06679" lon="4.72871">
        <ele>167.015</ele>
        <time>2015-09-13T06:15:04Z</time>
      </trkpt>
      <trkpt lat="50.06672" lon="4.72863">
        <ele>167.008</ele>
        <time>2015-09-13T06:15:09Z</time>
      </trkpt>
      <trkpt lat="50.06664" lon="4.72853">
        <ele>166.038</ele>
        <time>2015-09-13T06:15:17Z</time>
      </trkpt>
      <trkpt lat="50.06659" lon="4.72841">
        <ele>169.027</ele>
        <time>2015-09-13T06:15:31Z</time>
      </trkpt>
      <trkpt lat="50.06653" lon="4.72831">
        <ele>166.015</ele>
        <time>2015-09-13T06:15:36Z</time>
      </trkpt>
      <trkpt lat="50.06644" lon="4.7282">
        <ele>169.038</ele>
        <time>2015-09-13T06:15:41Z</time>
      </trkpt>
      <trkpt lat="50.06637" lon="4.72808">
        <ele>166.032</ele>
        <time>2015-09-13T06:15:48Z</time>
      </trkpt>
      <trkpt lat="50.0663" lon="4.728">
        <ele>161.011</ele>
        <time>2015-09-13T06:15:53Z</time>
      </trkpt>
      <trkpt lat="50.06622" lon="4.7279">
        <ele>164.039</ele>
        <time>2015-09-13T06:16:01Z</time>
      </trkpt>
      <trkpt lat="50.06613" lon="4.72784">
        <ele>161.08</ele>
        <time>2015-09-13T06:16:08Z</time>
      </trkpt>
      <trkpt lat="50.06607" lon="4.72772">
        <ele>166.018</ele>
        <time>2015-09-13T06:16:15Z</time>
      </trkpt>
      <trkpt lat="50.06602" lon="4.7276">
        <ele>163.098</ele>
        <time>2015-09-13T06:16:31Z</time>
      </trkpt>
      <trkpt lat="50.06592" lon="4.72759">
        <ele>159.017</ele>
        <time>2015-09-13T06:16:36Z</time>
      </trkpt>
      <trkpt lat="50.06583" lon="4.72751">
        <ele>158.008</ele>
        <time>2015-09-13T06:16:42Z</time>
      </trkpt>
      <trkpt lat="50.06576" lon="4.72741">
        <ele>162.092</ele>
        <time>2015-09-13T06:16:48Z</time>
      </trkpt>
      <trkpt lat="50.06568" lon="4.72731">
        <ele>161.081</ele>
        <time>2015-09-13T06:16:54Z</time>
      </trkpt>
      <trkpt lat="50.06559" lon="4.72721">
        <ele>159.089</ele>
        <time>2015-09-13T06:17:00Z</time>
      </trkpt>
      <trkpt lat="50.06552" lon="4.72709">
        <ele>160.022</ele>
        <time>2015-09-13T06:17:05Z</time>
      </trkpt>
      <trkpt lat="50.06543" lon="4.72702">
        <ele>158.096</ele>
        <time>2015-09-13T06:17:12Z</time>
      </trkpt>
      <trkpt lat="50.06535" lon="4.72696">
        <ele>155.095</ele>
        <time>2015-09-13T06:17:19Z</time>
      </trkpt>
      <trkpt lat="50.06526" lon="4.72693">
        <ele>153.043</ele>
        <time>2015-09-13T06:17:28Z</time>
      </trkpt>
      <trkpt lat="50.06517" lon="4.72692">
        <ele>154.074</ele>
        <time>2015-09-13T06:17:34Z</time>
      </trkpt>
      <trkpt lat="50.06509" lon="4.72681">
        <ele>157.024</ele>
        <time>2015-09-13T06:17:41Z</time>
      </trkpt>
      <trkpt lat="50.06502" lon="4.72669">
        <ele>161.004</ele>
        <time>2015-09-13T06:17:48Z</time>
      </trkpt>
      <trkpt lat="50.06496" lon="4.72657">
        <ele>159.014</ele>
        <time>2015-09-13T06:17:55Z</time>
      </trkpt>
      <trkpt lat="50.06486" lon="4.72653">
        <ele>158.008</ele>
        <time>2015-09-13T06:18:02Z</time>
      </trkpt>
      <trkpt lat="50.06478" lon="4.72645">
        <ele>158.083</ele>
        <time>2015-09-13T06:18:09Z</time>
      </trkpt>
      <trkpt lat="50.0647" lon="4.72638">
        <ele>158.022</ele>
        <time>2015-09-13T06:18:16Z</time>
      </trkpt>
      <trkpt lat="50.06462" lon="4.72629">
        <ele>160.06</ele>
        <time>2015-09-13T06:18:22Z</time>
      </trkpt>
      <trkpt lat="50.06453" lon="4.72622">
        <ele>159.043</ele>
        <time>2015-09-13T06:18:28Z</time>
      </trkpt>
      <trkpt lat="50.06444" lon="4.72616">
        <ele>158.077</ele>
        <time>2015-09-13T06:18:33Z</time>
      </trkpt>
      <trkpt lat="50.06435" lon="4.72611">
        <ele>160.036</ele>
        <time>2015-09-13T06:18:39Z</time>
      </trkpt>
      <trkpt lat="50.06426" lon="4.72607">
        <ele>160.054</ele>
        <time>2015-09-13T06:18:47Z</time>
      </trkpt>
      <trkpt lat="50.06417" lon="4.72606">
        <ele>160.095</ele>
        <time>2015-09-13T06:18:54Z</time>
      </trkpt>
      <trkpt lat="50.06408" lon="4.72602">
        <ele>163.081</ele>
        <time>2015-09-13T06:19:07Z</time>
      </trkpt>
      <trkpt lat="50.06398" lon="4.72598">
        <ele>161.061</ele>
        <time>2015-09-13T06:19:16Z</time>
      </trkpt>
      <trkpt lat="50.06389" lon="4.72598">
        <ele>166.017</ele>
        <time>2015-09-13T06:19:26Z</time>
      </trkpt>
      <trkpt lat="50.0638" lon="4.72597">
        <ele>162.008</ele>
        <time>2015-09-13T06:19:32Z</time>
      </trkpt>
      <trkpt lat="50.0637" lon="4.72597">
        <ele>161.019</ele>
        <time>2015-09-13T06:19:37Z</time>
      </trkpt>
      <trkpt lat="50.06361" lon="4.72596">
        <ele>163.088</ele>
        <time>2015-09-13T06:19:45Z</time>
      </trkpt>
      <trkpt lat="50.0635" lon="4.72593">
        <ele>156.076</ele>
        <time>2015-09-13T06:19:53Z</time>
      </trkpt>
      <trkpt lat="50.06341" lon="4.72592">
        <ele>164.029</ele>
        <time>2015-09-13T06:20:01Z</time>
      </trkpt>
      <trkpt lat="50.0633" lon="4.72591">
        <ele>169.033</ele>
        <time>2015-09-13T06:20:10Z</time>
      </trkpt>
      <trkpt lat="50.06321" lon="4.7259">
        <ele>167.072</ele>
        <time>2015-09-13T06:20:21Z</time>
      </trkpt>
      <trkpt lat="50.0631" lon="4.72586">
        <ele>162.08</ele>
        <time>2015-09-13T06:20:27Z</time>
      </trkpt>
      <trkpt lat="50.06302" lon="4.72593">
        <ele>165.071</ele>
        <time>2015-09-13T06:20:36Z</time>
      </trkpt>
      <trkpt lat="50.0629" lon="4.72597">
        <ele>166.033</ele>
        <time>2015-09-13T06:20:45Z</time>
      </trkpt>
      <trkpt lat="50.06279" lon="4.72596">
        <ele>166.023</ele>
        <time>2015-09-13T06:20:51Z</time>
      </trkpt>
      <trkpt lat="50.0627" lon="4.72598">
        <ele>162.015</ele>
        <time>2015-09-13T06:20:56Z</time>
      </trkpt>
      <trkpt lat="50.0626" lon="4.72603">
        <ele>164.008</ele>
        <time>2015-09-13T06:21:02Z</time>
      </trkpt>
      <trkpt lat="50.06249" lon="4.72604">
        <ele>156.024</ele>
        <time>2015-09-13T06:21:09Z</time>
      </trkpt>
      <trkpt lat="50.06237" lon="4.72606">
        <ele>154.023</ele>
        <time>2015-09-13T06:21:16Z</time>
      </trkpt>
      <trkpt lat="50.0623" lon="4.72614">
        <ele>152.041</ele>
        <time>2015-09-13T06:21:20Z</time>
      </trkpt>
      <trkpt lat="50.0622" lon="4.72616">
        <ele>153.054</ele>
        <time>2015-09-13T06:21:26Z</time>
      </trkpt>
      <trkpt lat="50.0621" lon="4.72615">
        <ele>159.078</ele>
        <time>2015-09-13T06:21:32Z</time>
      </trkpt>
      <trkpt lat="50.062" lon="4.7261">
        <ele>159.077</ele>
        <time>2015-09-13T06:21:38Z</time>
      </trkpt>
      <trkpt lat="50.06191" lon="4.7261">
        <ele>158.065</ele>
        <time>2015-09-13T06:21:46Z</time>
      </trkpt>
      <trkpt lat="50.06182" lon="4.72603">
        <ele>162.026</ele>
        <time>2015-09-13T06:21:53Z</time>
      </trkpt>
      <trkpt lat="50.06173" lon="4.72601">
        <ele>164.026</ele>
        <time>2015-09-13T06:22:00Z</time>
      </trkpt>
      <trkpt lat="50.06162" lon="4.72594">
        <ele>164.047</ele>
        <time>2015-09-13T06:22:08Z</time>
      </trkpt>
      <trkpt lat="50.06154" lon="4.7259">
        <ele>162.011</ele>
        <time>2015-09-13T06:22:15Z</time>
      </trkpt>
      <trkpt lat="50.06144" lon="4.72585">
        <ele>161.008</ele>
        <time>2015-09-13T06:22:24Z</time>
      </trkpt>
      <trkpt lat="50.06135" lon="4.72579">
        <ele>156.073</ele>
        <time>2015-09-13T06:22:31Z</time>
      </trkpt>
      <trkpt lat="50.06125" lon="4.72578">
        <ele>149.012</ele>
        <time>2015-09-13T06:22:39Z</time>
      </trkpt>
      <trkpt lat="50.06114" lon="4.72573">
        <ele>145.04</ele>
        <time>2015-09-13T06:22:45Z</time>
      </trkpt>
      <trkpt lat="50.06109" lon="4.7256">
        <ele>146.063</ele>
        <time>2015-09-13T06:22:50Z</time>
      </trkpt>
      <trkpt lat="50.06102" lon="4.72552">
        <ele>146.017</ele>
        <time>2015-09-13T06:22:57Z</time>
      </trkpt>
      <trkpt lat="50.06093" lon="4.72547">
        <ele>145.036</ele>
        <time>2015-09-13T06:23:04Z</time>
      </trkpt>
      <trkpt lat="50.06085" lon="4.72539">
        <ele>151.064</ele>
        <time>2015-09-13T06:23:12Z</time>
      </trkpt>
      <trkpt lat="50.06081" lon="4.72526">
        <ele>158.095</ele>
        <time>2015-09-13T06:23:18Z</time>
      </trkpt>
      <trkpt lat="50.06073" lon="4.72516">
        <ele>157.034</ele>
        <time>2015-09-13T06:23:25Z</time>
      </trkpt>
      <trkpt lat="50.06065" lon="4.72506">
        <ele>159.055</ele>
        <time>2015-09-13T06:23:32Z</time>
      </trkpt>
      <trkpt lat="50.06056" lon="4.72503">
        <ele>163.01</ele>
        <time>2015-09-13T06:23:39Z</time>
      </trkpt>
      <trkpt lat="50.0605" lon="4.72514">
        <ele>159.008</ele>
        <time>2015-09-13T06:23:45Z</time>
      </trkpt>
      <trkpt lat="50.06044" lon="4.72525">
        <ele>157.024</ele>
        <time>2015-09-13T06:23:53Z</time>
      </trkpt>
      <trkpt lat="50.06038" lon="4.72537">
        <ele>158.013</ele>
        <time>2015-09-13T06:24:01Z</time>
      </trkpt>
      <trkpt lat="50.06031" lon="4.72546">
        <ele>157.091</ele>
        <time>2015-09-13T06:24:09Z</time>
      </trkpt>
      <trkpt lat="50.06025" lon="4.7256">
        <ele>160.084</ele>
        <time>2015-09-13T06:24:17Z</time>
      </trkpt>
      <trkpt lat="50.06022" lon="4.72574">
        <ele>161.058</ele>
        <time>2015-09-13T06:24:24Z</time>
      </trkpt>
      <trkpt lat="50.06018" lon="4.72587">
        <ele>163.037</ele>
        <time>2015-09-13T06:24:31Z</time>
      </trkpt>
      <trkpt lat="50.06013" lon="4.72601">
        <ele>165.045</ele>
        <time>2015-09-13T06:24:39Z</time>
      </trkpt>
      <trkpt lat="50.06009" lon="4.72615">
        <ele>168.096</ele>
        <time>2015-09-13T06:24:46Z</time>
      </trkpt>
      <trkpt lat="50.06001" lon="4.72623">
        <ele>171.042</ele>
        <time>2015-09-13T06:24:53Z</time>
      </trkpt>
      <trkpt lat="50.05994" lon="4.72631">
        <ele>169.022</ele>
        <time>2015-09-13T06:24:59Z</time>
      </trkpt>
      <trkpt lat="50.05988" lon="4.72643">
        <ele>172.014</ele>
        <time>2015-09-13T06:25:06Z</time>
      </trkpt>
      <trkpt lat="50.05981" lon="4.72653">
        <ele>165.008</ele>
        <time>2015-09-13T06:25:16Z</time>
      </trkpt>
      <trkpt lat="50.05971" lon="4.72655">
        <ele>163.075</ele>
        <time>2015-09-13T06:25:24Z</time>
      </trkpt>
      <trkpt lat="50.05964" lon="4.72665">
        <ele>164.094</ele>
        <time>2015-09-13T06:25:31Z</time>
      </trkpt>
      <trkpt lat="50.05955" lon="4.7267">
        <ele>159.092</ele>
        <time>2015-09-13T06:25:39Z</time>
      </trkpt>
      <trkpt lat="50.05946" lon="4.72677">
        <ele>159.065</ele>
        <time>2015-09-13T06:25:44Z</time>
      </trkpt>
      <trkpt lat="50.05938" lon="4.72684">
        <ele>164.049</ele>
        <time>2015-09-13T06:25:51Z</time>
      </trkpt>
      <trkpt lat="50.05932" lon="4.72696">
        <ele>172.038</ele>
        <time>2015-09-13T06:25:58Z</time>
      </trkpt>
      <trkpt lat="50.05929" lon="4.72711">
        <ele>170.096</ele>
        <time>2015-09-13T06:26:05Z</time>
      </trkpt>
      <trkpt lat="50.05923" lon="4.72722">
        <ele>175.037</ele>
        <time>2015-09-13T06:26:13Z</time>
      </trkpt>
      <trkpt lat="50.0592" lon="4.72737">
        <ele>176.022</ele>
        <time>2015-09-13T06:26:20Z</time>
      </trkpt>
      <trkpt lat="50.05916" lon="4.7275">
        <ele>172.062</ele>
        <time>2015-09-13T06:26:27Z</time>
      </trkpt>
      <trkpt lat="50.05909" lon="4.72761">
        <ele>172.008</ele>
        <time>2015-09-13T06:26:34Z</time>
      </trkpt>
      <trkpt lat="50.05903" lon="4.72773">
        <ele>171.008</ele>
        <time>2015-09-13T06:26:41Z</time>
      </trkpt>
      <trkpt lat="50.05901" lon="4.72787">
        <ele>174.063</ele>
        <time>2015-09-13T06:26:50Z</time>
      </trkpt>
      <trkpt lat="50.05898" lon="4.72801">
        <ele>176.032</ele>
        <time>2015-09-13T06:26:57Z</time>
      </trkpt>
      <trkpt lat="50.05894" lon="4.72814">
        <ele>176.09</ele>
        <time>2015-09-13T06:27:02Z</time>
      </trkpt>
      <trkpt lat="50.05892" lon="4.7283">
        <ele>178.083</ele>
        <time>2015-09-13T06:27:09Z</time>
      </trkpt>
      <trkpt lat="50.05893" lon="4.72845">
        <ele>181.097</ele>
        <time>2015-09-13T06:27:15Z</time>
      </trkpt>
      <trkpt lat="50.05889" lon="4.72859">
        <ele>181.096</ele>
        <time>2015-09-13T06:27:23Z</time>
      </trkpt>
      <trkpt lat="50.05886" lon="4.72874">
        <ele>181.044</ele>
        <time>2015-09-13T06:27:33Z</time>
      </trkpt>
      <trkpt lat="50.05885" lon="4.72888">
        <ele>174.035</ele>
        <time>2015-09-13T06:27:40Z</time>
      </trkpt>
      <trkpt lat="50.05888" lon="4.72902">
        <ele>175.081</ele>
        <time>2015-09-13T06:27:45Z</time>
      </trkpt>
      <trkpt lat="50.05888" lon="4.72916">
        <ele>177.061</ele>
        <time>2015-09-13T06:27:54Z</time>
      </trkpt>
      <trkpt lat="50.05883" lon="4.7293">
        <ele>173.017</ele>
        <time>2015-09-13T06:28:02Z</time>
      </trkpt>
      <trkpt lat="50.05878" lon="4.72941">
        <ele>181.008</ele>
        <time>2015-09-13T06:28:13Z</time>
      </trkpt>
      <trkpt lat="50.05872" lon="4.72953">
        <ele>181.019</ele>
        <time>2015-09-13T06:28:20Z</time>
      </trkpt>
      <trkpt lat="50.05869" lon="4.72967">
        <ele>187.098</ele>
        <time>2015-09-13T06:28:25Z</time>
      </trkpt>
      <trkpt lat="50.05867" lon="4.72981">
        <ele>190.056</ele>
        <time>2015-09-13T06:28:31Z</time>
      </trkpt>
      <trkpt lat="50.05864" lon="4.72995">
        <ele>192.039</ele>
        <time>2015-09-13T06:28:37Z</time>
      </trkpt>
      <trkpt lat="50.0586" lon="4.73007">
        <ele>183.033</ele>
        <time>2015-09-13T06:28:44Z</time>
      </trkpt>
      <trkpt lat="50.05857" lon="4.73021">
        <ele>179.052</ele>
        <time>2015-09-13T06:28:56Z</time>
      </trkpt>
      <trkpt lat="50.05854" lon="4.73037">
        <ele>173.07</ele>
        <time>2015-09-13T06:29:03Z</time>
      </trkpt>
      <trkpt lat="50.05848" lon="4.7305">
        <ele>172.081</ele>
        <time>2015-09-13T06:29:09Z</time>
      </trkpt>
      <trkpt lat="50.05841" lon="4.7306">
        <ele>170.012</ele>
        <time>2015-09-13T06:29:17Z</time>
      </trkpt>
      <trkpt lat="50.05833" lon="4.73068">
        <ele>173.032</ele>
        <time>2015-09-13T06:29:24Z</time>
      </trkpt>
      <trkpt lat="50.05825" lon="4.73074">
        <ele>173.005</ele>
        <time>2015-09-13T06:29:30Z</time>
      </trkpt>
      <trkpt lat="50.05814" lon="4.73073">
        <ele>181.008</ele>
        <time>2015-09-13T06:29:59Z</time>
      </trkpt>
      <trkpt lat="50.05804" lon="4.73075">
        <ele>185.042</ele>
        <time>2015-09-13T06:30:04Z</time>
      </trkpt>
      <trkpt lat="50.05795" lon="4.7308">
        <ele>178.031</ele>
        <time>2015-09-13T06:30:08Z</time>
      </trkpt>
      <trkpt lat="50.05786" lon="4.73086">
        <ele>183.069</ele>
        <time>2015-09-13T06:30:13Z</time>
      </trkpt>
      <trkpt lat="50.05777" lon="4.7308">
        <ele>192.092</ele>
        <time>2015-09-13T06:30:19Z</time>
      </trkpt>
      <trkpt lat="50.05769" lon="4.73072">
        <ele>185.046</ele>
        <time>2015-09-13T06:30:25Z</time>
      </trkpt>
      <trkpt lat="50.0576" lon="4.73076">
        <ele>185.075</ele>
        <time>2015-09-13T06:30:31Z</time>
      </trkpt>
      <trkpt lat="50.0575" lon="4.73075">
        <ele>184.023</ele>
        <time>2015-09-13T06:30:37Z</time>
      </trkpt>
      <trkpt lat="50.0574" lon="4.7308">
        <ele>177.084</ele>
        <time>2015-09-13T06:30:43Z</time>
      </trkpt>
      <trkpt lat="50.05732" lon="4.73085">
        <ele>179.032</ele>
        <time>2015-09-13T06:30:53Z</time>
      </trkpt>
      <trkpt lat="50.05722" lon="4.73086">
        <ele>181.092</ele>
        <time>2015-09-13T06:31:06Z</time>
      </trkpt>
      <trkpt lat="50.05713" lon="4.73085">
        <ele>178.011</ele>
        <time>2015-09-13T06:31:30Z</time>
      </trkpt>
      <trkpt lat="50.05703" lon="4.7309">
        <ele>179.008</ele>
        <time>2015-09-13T06:31:35Z</time>
      </trkpt>
      <trkpt lat="50.05694" lon="4.73095">
        <ele>178.014</ele>
        <time>2015-09-13T06:31:40Z</time>
      </trkpt>
      <trkpt lat="50.05689" lon="4.73108">
        <ele>179.073</ele>
        <time>2015-09-13T06:31:45Z</time>
      </trkpt>
      <trkpt lat="50.05683" lon="4.73121">
        <ele>178.051</ele>
        <time>2015-09-13T06:31:51Z</time>
      </trkpt>
      <trkpt lat="50.05674" lon="4.73124">
        <ele>183.024</ele>
        <time>2015-09-13T06:31:59Z</time>
      </trkpt>
      <trkpt lat="50.05667" lon="4.73133">
        <ele>183.038</ele>
        <time>2015-09-13T06:32:08Z</time>
      </trkpt>
      <trkpt lat="50.05659" lon="4.73142">
        <ele>177.087</ele>
        <time>2015-09-13T06:32:19Z</time>
      </trkpt>
      <trkpt lat="50.05652" lon="4.73154">
        <ele>179.015</ele>
        <time>2015-09-13T06:32:28Z</time>
      </trkpt>
      <trkpt lat="50.05644" lon="4.73163">
        <ele>186.096</ele>
        <time>2015-09-13T06:32:34Z</time>
      </trkpt>
      <trkpt lat="50.05635" lon="4.7317">
        <ele>186.052</ele>
        <time>2015-09-13T06:32:42Z</time>
      </trkpt>
      <trkpt lat="50.05626" lon="4.73175">
        <ele>193.053</ele>
        <time>2015-09-13T06:32:51Z</time>
      </trkpt>
      <trkpt lat="50.05619" lon="4.73185">
        <ele>197.008</ele>
        <time>2015-09-13T06:33:03Z</time>
      </trkpt>
      <trkpt lat="50.05611" lon="4.73193">
        <ele>202.008</ele>
        <time>2015-09-13T06:33:10Z</time>
      </trkpt>
      <trkpt lat="50.05603" lon="4.73197">
        <ele>202.036</ele>
        <time>2015-09-13T06:33:20Z</time>
      </trkpt>
      <trkpt lat="50.05594" lon="4.73205">
        <ele>200.065</ele>
        <time>2015-09-13T06:33:31Z</time>
      </trkpt>
      <trkpt lat="50.05586" lon="4.73212">
        <ele>199.043</ele>
        <time>2015-09-13T06:33:42Z</time>
      </trkpt>
      <trkpt lat="50.05581" lon="4.73225">
        <ele>194.086</ele>
        <time>2015-09-13T06:33:57Z</time>
      </trkpt>
      <trkpt lat="50.05574" lon="4.73234">
        <ele>198.03</ele>
        <time>2015-09-13T06:34:04Z</time>
      </trkpt>
      <trkpt lat="50.05566" lon="4.73242">
        <ele>201.069</ele>
        <time>2015-09-13T06:34:11Z</time>
      </trkpt>
      <trkpt lat="50.0556" lon="4.73253">
        <ele>198.077</ele>
        <time>2015-09-13T06:34:21Z</time>
      </trkpt>
      <trkpt lat="50.05555" lon="4.73267">
        <ele>195.058</ele>
        <time>2015-09-13T06:34:40Z</time>
      </trkpt>
      <trkpt lat="50.05553" lon="4.73282">
        <ele>189.049</ele>
        <time>2015-09-13T06:34:45Z</time>
      </trkpt>
      <trkpt lat="50.05551" lon="4.73297">
        <ele>184.002</ele>
        <time>2015-09-13T06:34:49Z</time>
      </trkpt>
      <trkpt lat="50.0555" lon="4.73311">
        <ele>189.022</ele>
        <time>2015-09-13T06:34:57Z</time>
      </trkpt>
      <trkpt lat="50.0555" lon="4.73326">
        <ele>192.008</ele>
        <time>2015-09-13T06:35:16Z</time>
      </trkpt>
      <trkpt lat="50.05548" lon="4.73342">
        <ele>200.025</ele>
        <time>2015-09-13T06:35:24Z</time>
      </trkpt>
      <trkpt lat="50.05547" lon="4.73356">
        <ele>198.054</ele>
        <time>2015-09-13T06:35:30Z</time>
      </trkpt>
      <trkpt lat="50.05541" lon="4.7337">
        <ele>201.082</ele>
        <time>2015-09-13T06:35:35Z</time>
      </trkpt>
      <trkpt lat="50.05537" lon="4.73384">
        <ele>202.035</ele>
        <time>2015-09-13T06:35:39Z</time>
      </trkpt>
      <trkpt lat="50.05532" lon="4.73397">
        <ele>204.099</ele>
        <time>2015-09-13T06:35:43Z</time>
      </trkpt>
      <trkpt lat="50.05524" lon="4.73407">
        <ele>204.038</ele>
        <time>2015-09-13T06:35:48Z</time>
      </trkpt>
      <trkpt lat="50.05519" lon="4.7342">
        <ele>209.086</ele>
        <time>2015-09-13T06:35:57Z</time>
      </trkpt>
      <trkpt lat="50.05516" lon="4.73434">
        <ele>209.037</ele>
        <time>2015-09-13T06:36:10Z</time>
      </trkpt>
      <trkpt lat="50.05511" lon="4.73447">
        <ele>205.044</ele>
        <time>2015-09-13T06:36:19Z</time>
      </trkpt>
      <trkpt lat="50.05509" lon="4.73462">
        <ele>202.005</ele>
        <time>2015-09-13T06:36:28Z</time>
      </trkpt>
      <trkpt lat="50.05507" lon="4.73477">
        <ele>202.015</ele>
        <time>2015-09-13T06:36:35Z</time>
      </trkpt>
      <trkpt lat="50.05504" lon="4.73491">
        <ele>203.008</ele>
        <time>2015-09-13T06:36:41Z</time>
      </trkpt>
      <trkpt lat="50.055" lon="4.73504">
        <ele>207.045</ele>
        <time>2015-09-13T06:36:50Z</time>
      </trkpt>
      <trkpt lat="50.055" lon="4.7352">
        <ele>206.084</ele>
        <time>2015-09-13T06:37:02Z</time>
      </trkpt>
      <trkpt lat="50.05497" lon="4.73535">
        <ele>208.062</ele>
        <time>2015-09-13T06:37:11Z</time>
      </trkpt>
      <trkpt lat="50.05492" lon="4.73548">
        <ele>213.035</ele>
        <time>2015-09-13T06:37:22Z</time>
      </trkpt>
      <trkpt lat="50.05492" lon="4.73563">
        <ele>211.099</ele>
        <time>2015-09-13T06:37:29Z</time>
      </trkpt>
      <trkpt lat="50.0549" lon="4.7358">
        <ele>212.018</ele>
        <time>2015-09-13T06:37:36Z</time>
      </trkpt>
      <trkpt lat="50.05485" lon="4.73594">
        <ele>212.096</ele>
        <time>2015-09-13T06:37:40Z</time>
      </trkpt>
      <trkpt lat="50.05481" lon="4.73607">
        <ele>209.047</ele>
        <time>2015-09-13T06:37:46Z</time>
      </trkpt>
      <trkpt lat="50.05478" lon="4.73621">
        <ele>205.093</ele>
        <time>2015-09-13T06:37:52Z</time>
      </trkpt>
      <trkpt lat="50.05474" lon="4.73634">
        <ele>211.065</ele>
        <time>2015-09-13T06:38:09Z</time>
      </trkpt>
      <trkpt lat="50.05469" lon="4.73646">
        <ele>211.021</ele>
        <time>2015-09-13T06:38:18Z</time>
      </trkpt>
      <trkpt lat="50.05464" lon="4.73658">
        <ele>215.008</ele>
        <time>2015-09-13T06:38:29Z</time>
      </trkpt>
      <trkpt lat="50.05455" lon="4.73666">
        <ele>220.01</ele>
        <time>2015-09-13T06:38:39Z</time>
      </trkpt>
      <trkpt lat="50.05448" lon="4.73677">
        <ele>221.049</ele>
        <time>2015-09-13T06:39:02Z</time>
      </trkpt>
      <trkpt lat="50.05441" lon="4.7369">
        <ele>223.067</ele>
        <time>2015-09-13T06:39:07Z</time>
      </trkpt>
      <trkpt lat="50.05433" lon="4.737">
        <ele>225.09</ele>
        <time>2015-09-13T06:39:12Z</time>
      </trkpt>
      <trkpt lat="50.05425" lon="4.73709">
        <ele>226.064</ele>
        <time>2015-09-13T06:39:18Z</time>
      </trkpt>
      <trkpt lat="50.05417" lon="4.73721">
        <ele>223.083</ele>
        <time>2015-09-13T06:39:23Z</time>
      </trkpt>
      <trkpt lat="50.05409" lon="4.73732">
        <ele>222.071</ele>
        <time>2015-09-13T06:39:28Z</time>
      </trkpt>
      <trkpt lat="50.054" lon="4.73741">
        <ele>227.082</ele>
        <time>2015-09-13T06:39:36Z</time>
      </trkpt>
      <trkpt lat="50.05393" lon="4.73752">
        <ele>229.053</ele>
        <time>2015-09-13T06:39:50Z</time>
      </trkpt>
      <trkpt lat="50.05385" lon="4.73761">
        <ele>222.004</ele>
        <time>2015-09-13T06:40:09Z</time>
      </trkpt>
      <trkpt lat="50.05377" lon="4.7377">
        <ele>216.014</ele>
        <time>2015-09-13T06:40:14Z</time>
      </trkpt>
      <trkpt lat="50.05369" lon="4.73777">
        <ele>222.008</ele>
        <time>2015-09-13T06:40:27Z</time>
      </trkpt>
      <trkpt lat="50.0536" lon="4.7379">
        <ele>221.056</ele>
        <time>2015-09-13T06:40:33Z</time>
      </trkpt>
      <trkpt lat="50.05353" lon="4.73799">
        <ele>220.015</ele>
        <time>2015-09-13T06:40:36Z</time>
      </trkpt>
      <trkpt lat="50.05346" lon="4.73807">
        <ele>220.083</ele>
        <time>2015-09-13T06:40:40Z</time>
      </trkpt>
      <trkpt lat="50.05336" lon="4.73814">
        <ele>219.056</ele>
        <time>2015-09-13T06:40:45Z</time>
      </trkpt>
      <trkpt lat="50.05326" lon="4.73819">
        <ele>219.02</ele>
        <time>2015-09-13T06:40:48Z</time>
      </trkpt>
      <trkpt lat="50.05319" lon="4.73828">
        <ele>215.089</ele>
        <time>2015-09-13T06:40:59Z</time>
      </trkpt>
      <trkpt lat="50.05314" lon="4.7384">
        <ele>216.047</ele>
        <time>2015-09-13T06:41:09Z</time>
      </trkpt>
      <trkpt lat="50.05308" lon="4.73852">
        <ele>220.038</ele>
        <time>2015-09-13T06:41:20Z</time>
      </trkpt>
      <trkpt lat="50.05299" lon="4.73861">
        <ele>219.062</ele>
        <time>2015-09-13T06:41:32Z</time>
      </trkpt>
      <trkpt lat="50.0529" lon="4.73865">
        <ele>229.083</ele>
        <time>2015-09-13T06:41:40Z</time>
      </trkpt>
      <trkpt lat="50.05281" lon="4.73868">
        <ele>224.011</ele>
        <time>2015-09-13T06:41:47Z</time>
      </trkpt>
      <trkpt lat="50.05272" lon="4.73874">
        <ele>221.008</ele>
        <time>2015-09-13T06:41:56Z</time>
      </trkpt>
      <trkpt lat="50.05267" lon="4.73888">
        <ele>221.077</ele>
        <time>2015-09-13T06:42:04Z</time>
      </trkpt>
      <trkpt lat="50.05261" lon="4.739">
        <ele>223.076</ele>
        <time>2015-09-13T06:42:12Z</time>
      </trkpt>
      <trkpt lat="50.05256" lon="4.73913">
        <ele>222.074</ele>
        <time>2015-09-13T06:42:20Z</time>
      </trkpt>
      <trkpt lat="50.05251" lon="4.73926">
        <ele>222.047</ele>
        <time>2015-09-13T06:42:28Z</time>
      </trkpt>
      <trkpt lat="50.05243" lon="4.73935">
        <ele>218.091</ele>
        <time>2015-09-13T06:42:35Z</time>
      </trkpt>
      <trkpt lat="50.0524" lon="4.73948">
        <ele>219.08</ele>
        <time>2015-09-13T06:42:43Z</time>
      </trkpt>
      <trkpt lat="50.05235" lon="4.73961">
        <ele>222.048</ele>
        <time>2015-09-13T06:42:51Z</time>
      </trkpt>
      <trkpt lat="50.0523" lon="4.73974">
        <ele>220.039</ele>
        <time>2015-09-13T06:42:57Z</time>
      </trkpt>
      <trkpt lat="50.05224" lon="4.73985">
        <ele>235.077</ele>
        <time>2015-09-13T06:43:11Z</time>
      </trkpt>
      <trkpt lat="50.05219" lon="4.73997">
        <ele>228.061</ele>
        <time>2015-09-13T06:43:20Z</time>
      </trkpt>
      <trkpt lat="50.05213" lon="4.7401">
        <ele>233.027</ele>
        <time>2015-09-13T06:43:27Z</time>
      </trkpt>
      <trkpt lat="50.05209" lon="4.74024">
        <ele>230.008</ele>
        <time>2015-09-13T06:43:34Z</time>
      </trkpt>
      <trkpt lat="50.05207" lon="4.7404">
        <ele>224.088</ele>
        <time>2015-09-13T06:43:41Z</time>
      </trkpt>
      <trkpt lat="50.05206" lon="4.74055">
        <ele>225.097</ele>
        <time>2015-09-13T06:43:48Z</time>
      </trkpt>
      <trkpt lat="50.05203" lon="4.7407">
        <ele>221.085</ele>
        <time>2015-09-13T06:43:54Z</time>
      </trkpt>
      <trkpt lat="50.052" lon="4.74085">
        <ele>226.068</ele>
        <time>2015-09-13T06:44:04Z</time>
      </trkpt>
      <trkpt lat="50.05194" lon="4.74095">
        <ele>233.062</ele>
        <time>2015-09-13T06:44:13Z</time>
      </trkpt>
      <trkpt lat="50.05189" lon="4.74108">
        <ele>237.071</ele>
        <time>2015-09-13T06:44:24Z</time>
      </trkpt>
      <trkpt lat="50.05182" lon="4.74119">
        <ele>242.039</ele>
        <time>2015-09-13T06:44:33Z</time>
      </trkpt>
      <trkpt lat="50.05175" lon="4.74128">
        <ele>236.07</ele>
        <time>2015-09-13T06:44:42Z</time>
      </trkpt>
      <trkpt lat="50.0517" lon="4.74141">
        <ele>240.018</ele>
        <time>2015-09-13T06:44:51Z</time>
      </trkpt>
      <trkpt lat="50.05161" lon="4.74144">
        <ele>241.098</ele>
        <time>2015-09-13T06:44:59Z</time>
      </trkpt>
      <trkpt lat="50.05155" lon="4.74154">
        <ele>239.017</ele>
        <time>2015-09-13T06:45:08Z</time>
      </trkpt>
      <trkpt lat="50.05149" lon="4.74166">
        <ele>243.008</ele>
        <time>2015-09-13T06:45:15Z</time>
      </trkpt>
      <trkpt lat="50.05144" lon="4.74178">
        <ele>253.092</ele>
        <time>2015-09-13T06:45:21Z</time>
      </trkpt>
      <trkpt lat="50.05141" lon="4.74193">
        <ele>249.021</ele>
        <time>2015-09-13T06:45:30Z</time>
      </trkpt>
      <trkpt lat="50.05136" lon="4.74207">
        <ele>251.089</ele>
        <time>2015-09-13T06:45:40Z</time>
      </trkpt>
      <trkpt lat="50.0513" lon="4.74219">
        <ele>254.092</ele>
        <time>2015-09-13T06:45:46Z</time>
      </trkpt>
      <trkpt lat="50.05125" lon="4.74231">
        <ele>255.076</ele>
        <time>2015-09-13T06:45:52Z</time>
      </trkpt>
      <trkpt lat="50.05119" lon="4.74242">
        <ele>257.025</ele>
        <time>2015-09-13T06:46:17Z</time>
      </trkpt>
      <trkpt lat="50.05114" lon="4.74259">
        <ele>255.043</ele>
        <time>2015-09-13T06:46:22Z</time>
      </trkpt>
      <trkpt lat="50.05111" lon="4.74273">
        <ele>256.074</ele>
        <time>2015-09-13T06:46:25Z</time>
      </trkpt>
      <trkpt lat="50.05109" lon="4.74288">
        <ele>255.095</ele>
        <time>2015-09-13T06:46:30Z</time>
      </trkpt>
      <trkpt lat="50.05105" lon="4.74301">
        <ele>254.049</ele>
        <time>2015-09-13T06:46:38Z</time>
      </trkpt>
      <trkpt lat="50.051" lon="4.74315">
        <ele>262.023</ele>
        <time>2015-09-13T06:46:46Z</time>
      </trkpt>
      <trkpt lat="50.05095" lon="4.74327">
        <ele>259.008</ele>
        <time>2015-09-13T06:46:53Z</time>
      </trkpt>
      <trkpt lat="50.0509" lon="4.74339">
        <ele>259.04</ele>
        <time>2015-09-13T06:46:59Z</time>
      </trkpt>
      <trkpt lat="50.05084" lon="4.74352">
        <ele>255.019</ele>
        <time>2015-09-13T06:47:08Z</time>
      </trkpt>
      <trkpt lat="50.05079" lon="4.74364">
        <ele>256.037</ele>
        <time>2015-09-13T06:47:16Z</time>
      </trkpt>
      <trkpt lat="50.05075" lon="4.74378">
        <ele>258.01</ele>
        <time>2015-09-13T06:47:24Z</time>
      </trkpt>
      <trkpt lat="50.05069" lon="4.7439">
        <ele>253.014</ele>
        <time>2015-09-13T06:47:34Z</time>
      </trkpt>
      <trkpt lat="50.05063" lon="4.74402">
        <ele>257.093</ele>
        <time>2015-09-13T06:47:42Z</time>
      </trkpt>
      <trkpt lat="50.05064" lon="4.74416">
        <ele>260.031</ele>
        <time>2015-09-13T06:47:55Z</time>
      </trkpt>
      <trkpt lat="50.05072" lon="4.74422">
        <ele>262.022</ele>
        <time>2015-09-13T06:48:04Z</time>
      </trkpt>
      <trkpt lat="50.05081" lon="4.74422">
        <ele>263.083</ele>
        <time>2015-09-13T06:48:13Z</time>
      </trkpt>
      <trkpt lat="50.05072" lon="4.74416">
        <ele>258.025</ele>
        <time>2015-09-13T06:48:25Z</time>
      </trkpt>
      <trkpt lat="50.05063" lon="4.74423">
        <ele>256.017</ele>
        <time>2015-09-13T06:48:39Z</time>
      </trkpt>
      <trkpt lat="50.05053" lon="4.74432">
        <ele>263.008</ele>
        <time>2015-09-13T06:48:42Z</time>
      </trkpt>
      <trkpt lat="50.05045" lon="4.74445">
        <ele>264.089</ele>
        <time>2015-09-13T06:48:45Z</time>
      </trkpt>
      <trkpt lat="50.05037" lon="4.74454">
        <ele>262.098</ele>
        <time>2015-09-13T06:48:47Z</time>
      </trkpt>
      <trkpt lat="50.0503" lon="4.74464">
        <ele>261.046</ele>
        <time>2015-09-13T06:48:57Z</time>
      </trkpt>
      <trkpt lat="50.05022" lon="4.74473">
        <ele>257.089</ele>
        <time>2015-09-13T06:49:13Z</time>
      </trkpt>
      <trkpt lat="50.05018" lon="4.74485">
        <ele>257.033</ele>
        <time>2015-09-13T06:50:16Z</time>
      </trkpt>
      <trkpt lat="50.0501" lon="4.74496">
        <ele>263.012</ele>
        <time>2015-09-13T06:50:26Z</time>
      </trkpt>
      <trkpt lat="50.05004" lon="4.74509">
        <ele>262.02</ele>
        <time>2015-09-13T06:50:31Z</time>
      </trkpt>
      <trkpt lat="50.04996" lon="4.74515">
        <ele>267.071</ele>
        <time>2015-09-13T06:50:39Z</time>
      </trkpt>
      <trkpt lat="50.04992" lon="4.74528">
        <ele>268.014</ele>
        <time>2015-09-13T06:50:49Z</time>
      </trkpt>
      <trkpt lat="50.04985" lon="4.74537">
        <ele>269.054</ele>
        <time>2015-09-13T06:51:03Z</time>
      </trkpt>
      <trkpt lat="50.04976" lon="4.74544">
        <ele>268.009</ele>
        <time>2015-09-13T06:51:10Z</time>
      </trkpt>
      <trkpt lat="50.0497" lon="4.74556">
        <ele>267.008</ele>
        <time>2015-09-13T06:51:18Z</time>
      </trkpt>
      <trkpt lat="50.04964" lon="4.74569">
        <ele>267.032</ele>
        <time>2015-09-13T06:51:26Z</time>
      </trkpt>
      <trkpt lat="50.04958" lon="4.7458">
        <ele>269.011</ele>
        <time>2015-09-13T06:51:34Z</time>
      </trkpt>
      <trkpt lat="50.04952" lon="4.74592">
        <ele>271.049</ele>
        <time>2015-09-13T06:51:41Z</time>
      </trkpt>
      <trkpt lat="50.04947" lon="4.74606">
        <ele>272.092</ele>
        <time>2015-09-13T06:51:56Z</time>
      </trkpt>
      <trkpt lat="50.04942" lon="4.74619">
        <ele>277.086</ele>
        <time>2015-09-13T06:52:03Z</time>
      </trkpt>
      <trkpt lat="50.04939" lon="4.74633">
        <ele>276.055</ele>
        <time>2015-09-13T06:52:10Z</time>
      </trkpt>
      <trkpt lat="50.04932" lon="4.74644">
        <ele>285.073</ele>
        <time>2015-09-13T06:52:21Z</time>
      </trkpt>
      <trkpt lat="50.04925" lon="4.74655">
        <ele>289.094</ele>
        <time>2015-09-13T06:52:32Z</time>
      </trkpt>
      <trkpt lat="50.04918" lon="4.74667">
        <ele>289.092</ele>
        <time>2015-09-13T06:52:39Z</time>
      </trkpt>
      <trkpt lat="50.04915" lon="4.74682">
        <ele>285.073</ele>
        <time>2015-09-13T06:52:45Z</time>
      </trkpt>
      <trkpt lat="50.04914" lon="4.74696">
        <ele>285.02</ele>
        <time>2015-09-13T06:52:51Z</time>
      </trkpt>
      <trkpt lat="50.04915" lon="4.7471">
        <ele>288.008</ele>
        <time>2015-09-13T06:52:54Z</time>
      </trkpt>
      <trkpt lat="50.04912" lon="4.74725">
        <ele>294.03</ele>
        <time>2015-09-13T06:53:04Z</time>
      </trkpt>
      <trkpt lat="50.04906" lon="4.74737">
        <ele>292.019</ele>
        <time>2015-09-13T06:53:11Z</time>
      </trkpt>
      <trkpt lat="50.04899" lon="4.74748">
        <ele>294.017</ele>
        <time>2015-09-13T06:53:19Z</time>
      </trkpt>
      <trkpt lat="50.04893" lon="4.74758">
        <ele>297.02</ele>
        <time>2015-09-13T06:53:28Z</time>
      </trkpt>
      <trkpt lat="50.04886" lon="4.74768">
        <ele>302.044</ele>
        <time>2015-09-13T06:53:40Z</time>
      </trkpt>
      <trkpt lat="50.04884" lon="4.74783">
        <ele>300.043</ele>
        <time>2015-09-13T06:53:49Z</time>
      </trkpt>
      <trkpt lat="50.04881" lon="4.74798">
        <ele>304.071</ele>
        <time>2015-09-13T06:53:55Z</time>
      </trkpt>
      <trkpt lat="50.04876" lon="4.74811">
        <ele>304.062</ele>
        <time>2015-09-13T06:54:01Z</time>
      </trkpt>
      <trkpt lat="50.04874" lon="4.74827">
        <ele>300.026</ele>
        <time>2015-09-13T06:54:05Z</time>
      </trkpt>
      <trkpt lat="50.04872" lon="4.74843">
        <ele>302.047</ele>
        <time>2015-09-13T06:54:08Z</time>
      </trkpt>
      <trkpt lat="50.0487" lon="4.74858">
        <ele>305.011</ele>
        <time>2015-09-13T06:54:20Z</time>
      </trkpt>
      <trkpt lat="50.04862" lon="4.74867">
        <ele>304.008</ele>
        <time>2015-09-13T06:54:25Z</time>
      </trkpt>
      <trkpt lat="50.0486" lon="4.74882">
        <ele>301.083</ele>
        <time>2015-09-13T06:54:29Z</time>
      </trkpt>
      <trkpt lat="50.04858" lon="4.74898">
        <ele>303.022</ele>
        <time>2015-09-13T06:54:35Z</time>
      </trkpt>
      <trkpt lat="50.04856" lon="4.74912">
        <ele>305.01</ele>
        <time>2015-09-13T06:54:39Z</time>
      </trkpt>
      <trkpt lat="50.04858" lon="4.74926">
        <ele>308.093</ele>
        <time>2015-09-13T06:54:46Z</time>
      </trkpt>
      <trkpt lat="50.04863" lon="4.74939">
        <ele>306.057</ele>
        <time>2015-09-13T06:54:55Z</time>
      </trkpt>
      <trkpt lat="50.04861" lon="4.74953">
        <ele>303.066</ele>
        <time>2015-09-13T06:55:03Z</time>
      </trkpt>
      <trkpt lat="50.04858" lon="4.7497">
        <ele>301.064</ele>
        <time>2015-09-13T06:55:09Z</time>
      </trkpt>
      <trkpt lat="50.04855" lon="4.74984">
        <ele>296.095</ele>
        <time>2015-09-13T06:55:13Z</time>
      </trkpt>
      <trkpt lat="50.0486" lon="4.74997">
        <ele>296.093</ele>
        <time>2015-09-13T06:55:32Z</time>
      </trkpt>
      <trkpt lat="50.04862" lon="4.75011">
        <ele>292.065</ele>
        <time>2015-09-13T06:55:38Z</time>
      </trkpt>
      <trkpt lat="50.04862" lon="4.75025">
        <ele>297.021</ele>
        <time>2015-09-13T06:55:44Z</time>
      </trkpt>
      <trkpt lat="50.04862" lon="4.7504">
        <ele>299.008</ele>
        <time>2015-09-13T06:55:52Z</time>
      </trkpt>
      <trkpt lat="50.04857" lon="4.75052">
        <ele>303.06</ele>
        <time>2015-09-13T06:55:58Z</time>
      </trkpt>
      <trkpt lat="50.0486" lon="4.75066">
        <ele>311.049</ele>
        <time>2015-09-13T06:56:04Z</time>
      </trkpt>
      <trkpt lat="50.04865" lon="4.75078">
        <ele>315.057</ele>
        <time>2015-09-13T06:56:10Z</time>
      </trkpt>
      <trkpt lat="50.04866" lon="4.75092">
        <ele>311.02</ele>
        <time>2015-09-13T06:56:17Z</time>
      </trkpt>
      <trkpt lat="50.04863" lon="4.75109">
        <ele>310.084</ele>
        <time>2015-09-13T06:56:23Z</time>
      </trkpt>
      <trkpt lat="50.04867" lon="4.75125">
        <ele>317.093</ele>
        <time>2015-09-13T06:56:29Z</time>
      </trkpt>
      <trkpt lat="50.04868" lon="4.75141">
        <ele>319.091</ele>
        <time>2015-09-13T06:56:34Z</time>
      </trkpt>
      <trkpt lat="50.04874" lon="4.75152">
        <ele>310.062</ele>
        <time>2015-09-13T06:56:41Z</time>
      </trkpt>
      <trkpt lat="50.04874" lon="4.75168">
        <ele>309.072</ele>
        <time>2015-09-13T06:56:50Z</time>
      </trkpt>
      <trkpt lat="50.04877" lon="4.75182">
        <ele>315.013</ele>
        <time>2015-09-13T06:56:56Z</time>
      </trkpt>
      <trkpt lat="50.04881" lon="4.75195">
        <ele>318.014</ele>
        <time>2015-09-13T06:57:02Z</time>
      </trkpt>
      <trkpt lat="50.04889" lon="4.75202">
        <ele>318.008</ele>
        <time>2015-09-13T06:57:08Z</time>
      </trkpt>
      <trkpt lat="50.0489" lon="4.75219">
        <ele>315.018</ele>
        <time>2015-09-13T06:57:16Z</time>
      </trkpt>
      <trkpt lat="50.04897" lon="4.75228">
        <ele>310.067</ele>
        <time>2015-09-13T06:57:22Z</time>
      </trkpt>
      <trkpt lat="50.04901" lon="4.75241">
        <ele>313.065</ele>
        <time>2015-09-13T06:57:31Z</time>
      </trkpt>
      <trkpt lat="50.04907" lon="4.75254">
        <ele>309.028</ele>
        <time>2015-09-13T06:57:39Z</time>
      </trkpt>
      <trkpt lat="50.04908" lon="4.75269">
        <ele>313.052</ele>
        <time>2015-09-13T06:57:46Z</time>
      </trkpt>
      <trkpt lat="50.04913" lon="4.7528">
        <ele>312.011</ele>
        <time>2015-09-13T06:57:54Z</time>
      </trkpt>
      <trkpt lat="50.04916" lon="4.75294">
        <ele>312.019</ele>
        <time>2015-09-13T06:58:02Z</time>
      </trkpt>
      <trkpt lat="50.04921" lon="4.75306">
        <ele>316.03</ele>
        <time>2015-09-13T06:58:08Z</time>
      </trkpt>
      <trkpt lat="50.04924" lon="4.75319">
        <ele>314.024</ele>
        <time>2015-09-13T06:58:15Z</time>
      </trkpt>
      <trkpt lat="50.04932" lon="4.7533">
        <ele>313.004</ele>
        <time>2015-09-13T06:58:23Z</time>
      </trkpt>
      <trkpt lat="50.0494" lon="4.7534">
        <ele>312.014</ele>
        <time>2015-09-13T06:58:30Z</time>
      </trkpt>
      <trkpt lat="50.04948" lon="4.7535">
        <ele>303.008</ele>
        <time>2015-09-13T06:58:38Z</time>
      </trkpt>
      <trkpt lat="50.0495" lon="4.75365">
        <ele>304.093</ele>
        <time>2015-09-13T06:58:46Z</time>
      </trkpt>
      <trkpt lat="50.04959" lon="4.75363">
        <ele>298.052</ele>
        <time>2015-09-13T06:58:51Z</time>
      </trkpt>
      <trkpt lat="50.04969" lon="4.75362">
        <ele>300.02</ele>
        <time>2015-09-13T06:58:57Z</time>
      </trkpt>
      <trkpt lat="50.04967" lon="4.75375">
        <ele>294.093</ele>
        <time>2015-09-13T07:00:29Z</time>
      </trkpt>
      <trkpt lat="50.04958" lon="4.75382">
        <ele>290.057</ele>
        <time>2015-09-13T07:00:40Z</time>
      </trkpt>
      <trkpt lat="50.0495" lon="4.7539">
        <ele>296.046</ele>
        <time>2015-09-13T07:00:48Z</time>
      </trkpt>
      <trkpt lat="50.04942" lon="4.75398">
        <ele>305.044</ele>
        <time>2015-09-13T07:00:59Z</time>
      </trkpt>
      <trkpt lat="50.04936" lon="4.75408">
        <ele>308.035</ele>
        <time>2015-09-13T07:01:07Z</time>
      </trkpt>
      <trkpt lat="50.04928" lon="4.75416">
        <ele>309.022</ele>
        <time>2015-09-13T07:01:15Z</time>
      </trkpt>
      <trkpt lat="50.04923" lon="4.75428">
        <ele>308.062</ele>
        <time>2015-09-13T07:01:29Z</time>
      </trkpt>
      <trkpt lat="50.04915" lon="4.75437">
        <ele>312.008</ele>
        <time>2015-09-13T07:01:41Z</time>
      </trkpt>
      <trkpt lat="50.04911" lon="4.75453">
        <ele>316.008</ele>
        <time>2015-09-13T07:01:50Z</time>
      </trkpt>
      <trkpt lat="50.04907" lon="4.75467">
        <ele>315.013</ele>
        <time>2015-09-13T07:01:55Z</time>
      </trkpt>
      <trkpt lat="50.04903" lon="4.75481">
        <ele>320.072</ele>
        <time>2015-09-13T07:02:02Z</time>
      </trkpt>
      <trkpt lat="50.04898" lon="4.75494">
        <ele>323.04</ele>
        <time>2015-09-13T07:02:22Z</time>
      </trkpt>
      <trkpt lat="50.04894" lon="4.75508">
        <ele>324.093</ele>
        <time>2015-09-13T07:02:29Z</time>
      </trkpt>
      <trkpt lat="50.04892" lon="4.75521">
        <ele>324.017</ele>
        <time>2015-09-13T07:02:35Z</time>
      </trkpt>
      <trkpt lat="50.04887" lon="4.75534">
        <ele>327.086</ele>
        <time>2015-09-13T07:02:46Z</time>
      </trkpt>
      <trkpt lat="50.04883" lon="4.75547">
        <ele>332.034</ele>
        <time>2015-09-13T07:02:56Z</time>
      </trkpt>
      <trkpt lat="50.04878" lon="4.75559">
        <ele>333.045</ele>
        <time>2015-09-13T07:03:07Z</time>
      </trkpt>
      <trkpt lat="50.04869" lon="4.75566">
        <ele>335.068</ele>
        <time>2015-09-13T07:03:13Z</time>
      </trkpt>
      <trkpt lat="50.04864" lon="4.75578">
        <ele>337.042</ele>
        <time>2015-09-13T07:03:20Z</time>
      </trkpt>
      <trkpt lat="50.04857" lon="4.75586">
        <ele>339.026</ele>
        <time>2015-09-13T07:03:29Z</time>
      </trkpt>
      <trkpt lat="50.04853" lon="4.75602">
        <ele>342.008</ele>
        <time>2015-09-13T07:03:37Z</time>
      </trkpt>
      <trkpt lat="50.04847" lon="4.75614">
        <ele>341.047</ele>
        <time>2015-09-13T07:03:43Z</time>
      </trkpt>
      <trkpt lat="50.04844" lon="4.7563">
        <ele>341.066</ele>
        <time>2015-09-13T07:03:47Z</time>
      </trkpt>
      <trkpt lat="50.04844" lon="4.75645">
        <ele>341.044</ele>
        <time>2015-09-13T07:03:51Z</time>
      </trkpt>
      <trkpt lat="50.04844" lon="4.7566">
        <ele>337.017</ele>
        <time>2015-09-13T07:04:11Z</time>
      </trkpt>
      <trkpt lat="50.04842" lon="4.75676">
        <ele>341.011</ele>
        <time>2015-09-13T07:04:17Z</time>
      </trkpt>
      <trkpt lat="50.04842" lon="4.75693">
        <ele>342.01</ele>
        <time>2015-09-13T07:04:22Z</time>
      </trkpt>
      <trkpt lat="50.04841" lon="4.75708">
        <ele>339.028</ele>
        <time>2015-09-13T07:04:26Z</time>
      </trkpt>
      <trkpt lat="50.04836" lon="4.75725">
        <ele>345.059</ele>
        <time>2015-09-13T07:04:33Z</time>
      </trkpt>
      <trkpt lat="50.04833" lon="4.75738">
        <ele>346.086</ele>
        <time>2015-09-13T07:04:40Z</time>
      </trkpt>
      <trkpt lat="50.04838" lon="4.75752">
        <ele>346.06</ele>
        <time>2015-09-13T07:04:54Z</time>
      </trkpt>
      <trkpt lat="50.04844" lon="4.75768">
        <ele>346.026</ele>
        <time>2015-09-13T07:04:58Z</time>
      </trkpt>
      <trkpt lat="50.0485" lon="4.7578">
        <ele>343.008</ele>
        <time>2015-09-13T07:05:02Z</time>
      </trkpt>
      <trkpt lat="50.04859" lon="4.75787">
        <ele>345.079</ele>
        <time>2015-09-13T07:05:07Z</time>
      </trkpt>
      <trkpt lat="50.04865" lon="4.75797">
        <ele>346.088</ele>
        <time>2015-09-13T07:05:13Z</time>
      </trkpt>
      <trkpt lat="50.04871" lon="4.75809">
        <ele>349.036</ele>
        <time>2015-09-13T07:05:21Z</time>
      </trkpt>
      <trkpt lat="50.04876" lon="4.75822">
        <ele>346.069</ele>
        <time>2015-09-13T07:05:29Z</time>
      </trkpt>
      <trkpt lat="50.04876" lon="4.75839">
        <ele>342.043</ele>
        <time>2015-09-13T07:05:34Z</time>
      </trkpt>
      <trkpt lat="50.04883" lon="4.7585">
        <ele>342.082</ele>
        <time>2015-09-13T07:05:40Z</time>
      </trkpt>
      <trkpt lat="50.04889" lon="4.75862">
        <ele>346.04</ele>
        <time>2015-09-13T07:05:49Z</time>
      </trkpt>
      <trkpt lat="50.04889" lon="4.75878">
        <ele>344.021</ele>
        <time>2015-09-13T07:05:56Z</time>
      </trkpt>
      <trkpt lat="50.0489" lon="4.75893">
        <ele>345.027</ele>
        <time>2015-09-13T07:06:03Z</time>
      </trkpt>
      <trkpt lat="50.04895" lon="4.75906">
        <ele>344.068</ele>
        <time>2015-09-13T07:06:16Z</time>
      </trkpt>
      <trkpt lat="50.049" lon="4.75919">
        <ele>344.014</ele>
        <time>2015-09-13T07:06:22Z</time>
      </trkpt>
      <trkpt lat="50.04898" lon="4.75934">
        <ele>345.008</ele>
        <time>2015-09-13T07:06:34Z</time>
      </trkpt>
      <trkpt lat="50.04899" lon="4.75949">
        <ele>346.013</ele>
        <time>2015-09-13T07:06:42Z</time>
      </trkpt>
      <trkpt lat="50.049" lon="4.75963">
        <ele>347.092</ele>
        <time>2015-09-13T07:06:53Z</time>
      </trkpt>
      <trkpt lat="50.04902" lon="4.75981">
        <ele>350.01</ele>
        <time>2015-09-13T07:07:09Z</time>
      </trkpt>
      <trkpt lat="50.04903" lon="4.75997">
        <ele>349.063</ele>
        <time>2015-09-13T07:07:13Z</time>
      </trkpt>
      <trkpt lat="50.04906" lon="4.76011">
        <ele>350.047</ele>
        <time>2015-09-13T07:07:18Z</time>
      </trkpt>
      <trkpt lat="50.04911" lon="4.76024">
        <ele>350.076</ele>
        <time>2015-09-13T07:07:26Z</time>
      </trkpt>
      <trkpt lat="50.04916" lon="4.76036">
        <ele>351.044</ele>
        <time>2015-09-13T07:07:32Z</time>
      </trkpt>
      <trkpt lat="50.04919" lon="4.7605">
        <ele>351.095</ele>
        <time>2015-09-13T07:07:44Z</time>
      </trkpt>
      <trkpt lat="50.04922" lon="4.76064">
        <ele>350.093</ele>
        <time>2015-09-13T07:07:51Z</time>
      </trkpt>
      <trkpt lat="50.04923" lon="4.76078">
        <ele>358.065</ele>
        <time>2015-09-13T07:08:01Z</time>
      </trkpt>
      <trkpt lat="50.04923" lon="4.76093">
        <ele>362.021</ele>
        <time>2015-09-13T07:08:08Z</time>
      </trkpt>
      <trkpt lat="50.04922" lon="4.76107">
        <ele>360.008</ele>
        <time>2015-09-13T07:08:12Z</time>
      </trkpt>
      <trkpt lat="50.04926" lon="4.7612">
        <ele>359.04</ele>
        <time>2015-09-13T07:08:17Z</time>
      </trkpt>
      <trkpt lat="50.04929" lon="4.76134">
        <ele>358.099</ele>
        <time>2015-09-13T07:08:27Z</time>
      </trkpt>
      <trkpt lat="50.04935" lon="4.76147">
        <ele>354.047</ele>
        <time>2015-09-13T07:08:35Z</time>
      </trkpt>
      <trkpt lat="50.0494" lon="4.76159">
        <ele>358.07</ele>
        <time>2015-09-13T07:08:44Z</time>
      </trkpt>
      <trkpt lat="50.04948" lon="4.76168">
        <ele>352.074</ele>
        <time>2015-09-13T07:08:53Z</time>
      </trkpt>
      <trkpt lat="50.04954" lon="4.7618">
        <ele>355.023</ele>
        <time>2015-09-13T07:09:01Z</time>
      </trkpt>
      <trkpt lat="50.04959" lon="4.76192">
        <ele>355.031</ele>
        <time>2015-09-13T07:09:17Z</time>
      </trkpt>
      <trkpt lat="50.04964" lon="4.76206">
        <ele>357.052</ele>
        <time>2015-09-13T07:09:22Z</time>
      </trkpt>
      <trkpt lat="50.04973" lon="4.76211">
        <ele>360.061</ele>
        <time>2015-09-13T07:09:27Z</time>
      </trkpt>
      <trkpt lat="50.04979" lon="4.76222">
        <ele>361.021</ele>
        <time>2015-09-13T07:09:33Z</time>
      </trkpt>
      <trkpt lat="50.04987" lon="4.76231">
        <ele>360.013</ele>
        <time>2015-09-13T07:09:39Z</time>
      </trkpt>
      <trkpt lat="50.04991" lon="4.76244">
        <ele>356.008</ele>
        <time>2015-09-13T07:09:51Z</time>
      </trkpt>
      <trkpt lat="50.04996" lon="4.76233">
        <ele>362.027</ele>
        <time>2015-09-13T07:11:29Z</time>
      </trkpt>
      <trkpt lat="50.04988" lon="4.76239">
        <ele>364.046</ele>
        <time>2015-09-13T07:12:19Z</time>
      </trkpt>
      <trkpt lat="50.04984" lon="4.76252">
        <ele>366.024</ele>
        <time>2015-09-13T07:12:45Z</time>
      </trkpt>
      <trkpt lat="50.0498" lon="4.76265">
        <ele>368.097</ele>
        <time>2015-09-13T07:12:54Z</time>
      </trkpt>
      <trkpt lat="50.04979" lon="4.7628">
        <ele>371.061</ele>
        <time>2015-09-13T07:13:02Z</time>
      </trkpt>
      <trkpt lat="50.04978" lon="4.76295">
        <ele>366.07</ele>
        <time>2015-09-13T07:13:10Z</time>
      </trkpt>
      <trkpt lat="50.04977" lon="4.76309">
        <ele>366.058</ele>
        <time>2015-09-13T07:13:18Z</time>
      </trkpt>
      <trkpt lat="50.04975" lon="4.76324">
        <ele>367.039</ele>
        <time>2015-09-13T07:13:26Z</time>
      </trkpt>
      <trkpt lat="50.04975" lon="4.76339">
        <ele>369.075</ele>
        <time>2015-09-13T07:13:35Z</time>
      </trkpt>
      <trkpt lat="50.04976" lon="4.76353">
        <ele>369.028</ele>
        <time>2015-09-13T07:13:45Z</time>
      </trkpt>
      <trkpt lat="50.04974" lon="4.76367">
        <ele>370.02</ele>
        <time>2015-09-13T07:13:52Z</time>
      </trkpt>
      <trkpt lat="50.04971" lon="4.76382">
        <ele>371.008</ele>
        <time>2015-09-13T07:13:59Z</time>
      </trkpt>
      <trkpt lat="50.04969" lon="4.76398">
        <ele>364.068</ele>
        <time>2015-09-13T07:14:05Z</time>
      </trkpt>
      <trkpt lat="50.04969" lon="4.76412">
        <ele>364.037</ele>
        <time>2015-09-13T07:14:11Z</time>
      </trkpt>
      <trkpt lat="50.04967" lon="4.76426">
        <ele>363.085</ele>
        <time>2015-09-13T07:14:18Z</time>
      </trkpt>
      <trkpt lat="50.04968" lon="4.76441">
        <ele>369.018</ele>
        <time>2015-09-13T07:14:27Z</time>
      </trkpt>
      <trkpt lat="50.04966" lon="4.76457">
        <ele>370.062</ele>
        <time>2015-09-13T07:14:34Z</time>
      </trkpt>
      <trkpt lat="50.04964" lon="4.76471">
        <ele>369.011</ele>
        <time>2015-09-13T07:14:42Z</time>
      </trkpt>
      <trkpt lat="50.04966" lon="4.76486">
        <ele>371.029</ele>
        <time>2015-09-13T07:14:51Z</time>
      </trkpt>
      <trkpt lat="50.04965" lon="4.765">
        <ele>375.02</ele>
        <time>2015-09-13T07:15:00Z</time>
      </trkpt>
      <trkpt lat="50.04965" lon="4.76514">
        <ele>375.086</ele>
        <time>2015-09-13T07:15:08Z</time>
      </trkpt>
      <trkpt lat="50.04964" lon="4.76528">
        <ele>375.06</ele>
        <time>2015-09-13T07:15:15Z</time>
      </trkpt>
      <trkpt lat="50.04966" lon="4.76542">
        <ele>375.026</ele>
        <time>2015-09-13T07:15:22Z</time>
      </trkpt>
      <trkpt lat="50.04965" lon="4.76557">
        <ele>376.008</ele>
        <time>2015-09-13T07:15:30Z</time>
      </trkpt>
      <trkpt lat="50.04962" lon="4.76571">
        <ele>375.099</ele>
        <time>2015-09-13T07:15:39Z</time>
      </trkpt>
      <trkpt lat="50.04962" lon="4.76586">
        <ele>377.078</ele>
        <time>2015-09-13T07:15:48Z</time>
      </trkpt>
      <trkpt lat="50.04961" lon="4.76601">
        <ele>379.086</ele>
        <time>2015-09-13T07:15:54Z</time>
      </trkpt>
      <trkpt lat="50.04958" lon="4.76614">
        <ele>379.069</ele>
        <time>2015-09-13T07:16:01Z</time>
      </trkpt>
      <trkpt lat="50.04957" lon="4.76629">
        <ele>382.083</ele>
        <time>2015-09-13T07:16:13Z</time>
      </trkpt>
      <trkpt lat="50.04955" lon="4.76646">
        <ele>381.042</ele>
        <time>2015-09-13T07:16:18Z</time>
      </trkpt>
      <trkpt lat="50.04955" lon="4.76662">
        <ele>378.07</ele>
        <time>2015-09-13T07:16:23Z</time>
      </trkpt>
      <trkpt lat="50.04956" lon="4.76676">
        <ele>380.021</ele>
        <time>2015-09-13T07:16:28Z</time>
      </trkpt>
      <trkpt lat="50.0495" lon="4.76688">
        <ele>380.077</ele>
        <time>2015-09-13T07:16:34Z</time>
      </trkpt>
      <trkpt lat="50.04948" lon="4.76704">
        <ele>381.061</ele>
        <time>2015-09-13T07:16:42Z</time>
      </trkpt>
      <trkpt lat="50.0495" lon="4.76719">
        <ele>382.027</ele>
        <time>2015-09-13T07:16:54Z</time>
      </trkpt>
      <trkpt lat="50.04948" lon="4.76733">
        <ele>384.008</ele>
        <time>2015-09-13T07:17:04Z</time>
      </trkpt>
      <trkpt lat="50.04947" lon="4.7675">
        <ele>382.018</ele>
        <time>2015-09-13T07:17:13Z</time>
      </trkpt>
      <trkpt lat="50.04948" lon="4.76765">
        <ele>381.037</ele>
        <time>2015-09-13T07:17:23Z</time>
      </trkpt>
      <trkpt lat="50.04946" lon="4.76779">
        <ele>383.055</ele>
        <time>2015-09-13T07:17:30Z</time>
      </trkpt>
      <trkpt lat="50.04944" lon="4.76794">
        <ele>383.098</ele>
        <time>2015-09-13T07:17:36Z</time>
      </trkpt>
      <trkpt lat="50.04944" lon="4.76808">
        <ele>383.082</ele>
        <time>2015-09-13T07:17:45Z</time>
      </trkpt>
      <trkpt lat="50.04942" lon="4.76824">
        <ele>383.021</ele>
        <time>2015-09-13T07:17:49Z</time>
      </trkpt>
      <trkpt lat="50.04943" lon="4.76839">
        <ele>386.099</ele>
        <time>2015-09-13T07:17:59Z</time>
      </trkpt>
      <trkpt lat="50.04937" lon="4.76852">
        <ele>386.06</ele>
        <time>2015-09-13T07:18:06Z</time>
      </trkpt>
      <trkpt lat="50.04936" lon="4.76868">
        <ele>384.056</ele>
        <time>2015-09-13T07:18:13Z</time>
      </trkpt>
      <trkpt lat="50.04938" lon="4.76882">
        <ele>379.059</ele>
        <time>2015-09-13T07:18:20Z</time>
      </trkpt>
      <trkpt lat="50.04937" lon="4.76897">
        <ele>380.014</ele>
        <time>2015-09-13T07:18:26Z</time>
      </trkpt>
      <trkpt lat="50.04935" lon="4.76913">
        <ele>384.008</ele>
        <time>2015-09-13T07:18:32Z</time>
      </trkpt>
      <trkpt lat="50.0493" lon="4.76929">
        <ele>389.016</ele>
        <time>2015-09-13T07:18:37Z</time>
      </trkpt>
      <trkpt lat="50.04932" lon="4.76943">
        <ele>390.065</ele>
        <time>2015-09-13T07:18:44Z</time>
      </trkpt>
      <trkpt lat="50.04936" lon="4.76956">
        <ele>387.093</ele>
        <time>2015-09-13T07:18:53Z</time>
      </trkpt>
      <trkpt lat="50.04939" lon="4.7697">
        <ele>384.016</ele>
        <time>2015-09-13T07:19:01Z</time>
      </trkpt>
      <trkpt lat="50.04931" lon="4.76971">
        <ele>377.04</ele>
        <time>2015-09-13T07:19:15Z</time>
      </trkpt>
      <trkpt lat="50.04924" lon="4.76983">
        <ele>375.049</ele>
        <time>2015-09-13T07:20:08Z</time>
      </trkpt>
      <trkpt lat="50.04925" lon="4.77001">
        <ele>383.027</ele>
        <time>2015-09-13T07:20:12Z</time>
      </trkpt>
      <trkpt lat="50.04926" lon="4.77017">
        <ele>387.038</ele>
        <time>2015-09-13T07:20:20Z</time>
      </trkpt>
      <trkpt lat="50.04925" lon="4.77031">
        <ele>385.021</ele>
        <time>2015-09-13T07:20:23Z</time>
      </trkpt>
      <trkpt lat="50.04923" lon="4.77048">
        <ele>384.041</ele>
        <time>2015-09-13T07:20:27Z</time>
      </trkpt>
      <trkpt lat="50.04916" lon="4.77058">
        <ele>385.005</ele>
        <time>2015-09-13T07:20:35Z</time>
      </trkpt>
      <trkpt lat="50.04927" lon="4.77057">
        <ele>386.008</ele>
        <time>2015-09-13T07:20:44Z</time>
      </trkpt>
      <trkpt lat="50.04926" lon="4.77076">
        <ele>384.033</ele>
        <time>2015-09-13T07:21:30Z</time>
      </trkpt>
      <trkpt lat="50.04928" lon="4.77092">
        <ele>383.062</ele>
        <time>2015-09-13T07:21:35Z</time>
      </trkpt>
      <trkpt lat="50.04927" lon="4.7711">
        <ele>384.01</ele>
        <time>2015-09-13T07:21:38Z</time>
      </trkpt>
      <trkpt lat="50.04926" lon="4.77128">
        <ele>383.063</ele>
        <time>2015-09-13T07:21:41Z</time>
      </trkpt>
      <trkpt lat="50.04923" lon="4.77143">
        <ele>386.067</ele>
        <time>2015-09-13T07:21:45Z</time>
      </trkpt>
      <trkpt lat="50.04916" lon="4.77155">
        <ele>386.036</ele>
        <time>2015-09-13T07:21:52Z</time>
      </trkpt>
      <trkpt lat="50.04916" lon="4.7717">
        <ele>386.054</ele>
        <time>2015-09-13T07:22:01Z</time>
      </trkpt>
      <trkpt lat="50.04915" lon="4.77187">
        <ele>391.025</ele>
        <time>2015-09-13T07:22:09Z</time>
      </trkpt>
      <trkpt lat="50.04916" lon="4.77202">
        <ele>380.047</ele>
        <time>2015-09-13T07:22:16Z</time>
      </trkpt>
      <trkpt lat="50.04909" lon="4.77211">
        <ele>377.029</ele>
        <time>2015-09-13T07:22:28Z</time>
      </trkpt>
      <trkpt lat="50.04913" lon="4.77227">
        <ele>372.021</ele>
        <time>2015-09-13T07:22:36Z</time>
      </trkpt>
      <trkpt lat="50.04917" lon="4.77239">
        <ele>372.008</ele>
        <time>2015-09-13T07:22:45Z</time>
      </trkpt>
      <trkpt lat="50.04919" lon="4.77256">
        <ele>373.095</ele>
        <time>2015-09-13T07:22:51Z</time>
      </trkpt>
      <trkpt lat="50.04918" lon="4.77271">
        <ele>369.094</ele>
        <time>2015-09-13T07:22:57Z</time>
      </trkpt>
      <trkpt lat="50.0492" lon="4.77286">
        <ele>370.062</ele>
        <time>2015-09-13T07:23:02Z</time>
      </trkpt>
      <trkpt lat="50.04921" lon="4.773">
        <ele>371.085</ele>
        <time>2015-09-13T07:23:07Z</time>
      </trkpt>
      <trkpt lat="50.04921" lon="4.77315">
        <ele>375.069</ele>
        <time>2015-09-13T07:23:13Z</time>
      </trkpt>
      <trkpt lat="50.0492" lon="4.7733">
        <ele>376.078</ele>
        <time>2015-09-13T07:23:19Z</time>
      </trkpt>
      <trkpt lat="50.04923" lon="4.77344">
        <ele>376.026</ele>
        <time>2015-09-13T07:23:28Z</time>
      </trkpt>
      <trkpt lat="50.04923" lon="4.77359">
        <ele>378.087</ele>
        <time>2015-09-13T07:24:06Z</time>
      </trkpt>
      <trkpt lat="50.0492" lon="4.77373">
        <ele>379.015</ele>
        <time>2015-09-13T07:24:12Z</time>
      </trkpt>
      <trkpt lat="50.04918" lon="4.7739">
        <ele>373.065</ele>
        <time>2015-09-13T07:24:18Z</time>
      </trkpt>
      <trkpt lat="50.04914" lon="4.77403">
        <ele>374.011</ele>
        <time>2015-09-13T07:24:23Z</time>
      </trkpt>
      <trkpt lat="50.04907" lon="4.77415">
        <ele>376.008</ele>
        <time>2015-09-13T07:24:30Z</time>
      </trkpt>
      <trkpt lat="50.04902" lon="4.77429">
        <ele>378.022</ele>
        <time>2015-09-13T07:24:37Z</time>
      </trkpt>
      <trkpt lat="50.04898" lon="4.77443">
        <ele>377.041</ele>
        <time>2015-09-13T07:24:44Z</time>
      </trkpt>
      <trkpt lat="50.0489" lon="4.77454">
        <ele>382.029</ele>
        <time>2015-09-13T07:24:51Z</time>
      </trkpt>
      <trkpt lat="50.04884" lon="4.77465">
        <ele>383.032</ele>
        <time>2015-09-13T07:24:57Z</time>
      </trkpt>
      <trkpt lat="50.04879" lon="4.77479">
        <ele>383.096</ele>
        <time>2015-09-13T07:25:02Z</time>
      </trkpt>
      <trkpt lat="50.04872" lon="4.7749">
        <ele>382.035</ele>
        <time>2015-09-13T07:25:11Z</time>
      </trkpt>
      <trkpt lat="50.04868" lon="4.77502">
        <ele>391.053</ele>
        <time>2015-09-13T07:25:35Z</time>
      </trkpt>
      <trkpt lat="50.04862" lon="4.77513">
        <ele>388.014</ele>
        <time>2015-09-13T07:25:39Z</time>
      </trkpt>
      <trkpt lat="50.04857" lon="4.77528">
        <ele>392.081</ele>
        <time>2015-09-13T07:25:44Z</time>
      </trkpt>
      <trkpt lat="50.04849" lon="4.77533">
        <ele>394.061</ele>
        <time>2015-09-13T07:25:48Z</time>
      </trkpt>
      <trkpt lat="50.04843" lon="4.77546">
        <ele>398.017</ele>
        <time>2015-09-13T07:25:53Z</time>
      </trkpt>
      <trkpt lat="50.04837" lon="4.77558">
        <ele>404.008</ele>
        <time>2015-09-13T07:26:02Z</time>
      </trkpt>
      <trkpt lat="50.04829" lon="4.77567">
        <ele>403.029</ele>
        <time>2015-09-13T07:26:09Z</time>
      </trkpt>
      <trkpt lat="50.04825" lon="4.77579">
        <ele>399.078</ele>
        <time>2015-09-13T07:26:20Z</time>
      </trkpt>
      <trkpt lat="50.04818" lon="4.77591">
        <ele>401.026</ele>
        <time>2015-09-13T07:26:32Z</time>
      </trkpt>
      <trkpt lat="50.04813" lon="4.77605">
        <ele>401.019</ele>
        <time>2015-09-13T07:26:41Z</time>
      </trkpt>
      <trkpt lat="50.0481" lon="4.77619">
        <ele>396.043</ele>
        <time>2015-09-13T07:26:46Z</time>
      </trkpt>
      <trkpt lat="50.04802" lon="4.77628">
        <ele>400.032</ele>
        <time>2015-09-13T07:26:51Z</time>
      </trkpt>
      <trkpt lat="50.04795" lon="4.77637">
        <ele>402.01</ele>
        <time>2015-09-13T07:26:57Z</time>
      </trkpt>
      <trkpt lat="50.04793" lon="4.77651">
        <ele>403.041</ele>
        <time>2015-09-13T07:27:07Z</time>
      </trkpt>
      <trkpt lat="50.04788" lon="4.77665">
        <ele>404.056</ele>
        <time>2015-09-13T07:27:17Z</time>
      </trkpt>
      <trkpt lat="50.04789" lon="4.77679">
        <ele>399.059</ele>
        <time>2015-09-13T07:27:22Z</time>
      </trkpt>
      <trkpt lat="50.04794" lon="4.77693">
        <ele>400.014</ele>
        <time>2015-09-13T07:27:28Z</time>
      </trkpt>
      <trkpt lat="50.04792" lon="4.77708">
        <ele>399.008</ele>
        <time>2015-09-13T07:27:33Z</time>
      </trkpt>
      <trkpt lat="50.04798" lon="4.7772">
        <ele>401.046</ele>
        <time>2015-09-13T07:27:39Z</time>
      </trkpt>
      <trkpt lat="50.04803" lon="4.77732">
        <ele>401.065</ele>
        <time>2015-09-13T07:27:46Z</time>
      </trkpt>
      <trkpt lat="50.04808" lon="4.77745">
        <ele>394.063</ele>
        <time>2015-09-13T07:27:52Z</time>
      </trkpt>
      <trkpt lat="50.04815" lon="4.77757">
        <ele>392.096</ele>
        <time>2015-09-13T07:28:01Z</time>
      </trkpt>
      <trkpt lat="50.04824" lon="4.7776">
        <ele>394.06</ele>
        <time>2015-09-13T07:28:09Z</time>
      </trkpt>
      <trkpt lat="50.04834" lon="4.77765">
        <ele>395.099</ele>
        <time>2015-09-13T07:28:16Z</time>
      </trkpt>
      <trkpt lat="50.04842" lon="4.77769">
        <ele>399.097</ele>
        <time>2015-09-13T07:28:24Z</time>
      </trkpt>
      <trkpt lat="50.0485" lon="4.7778">
        <ele>396.068</ele>
        <time>2015-09-13T07:28:32Z</time>
      </trkpt>
      <trkpt lat="50.04856" lon="4.77792">
        <ele>400.025</ele>
        <time>2015-09-13T07:28:40Z</time>
      </trkpt>
      <trkpt lat="50.04863" lon="4.77801">
        <ele>397.026</ele>
        <time>2015-09-13T07:28:48Z</time>
      </trkpt>
      <trkpt lat="50.04871" lon="4.7781">
        <ele>396.008</ele>
        <time>2015-09-13T07:28:57Z</time>
      </trkpt>
      <trkpt lat="50.04879" lon="4.77819">
        <ele>395.008</ele>
        <time>2015-09-13T07:29:06Z</time>
      </trkpt>
      <trkpt lat="50.04888" lon="4.77826">
        <ele>392.033</ele>
        <time>2015-09-13T07:29:13Z</time>
      </trkpt>
      <trkpt lat="50.04895" lon="4.77836">
        <ele>397.052</ele>
        <time>2015-09-13T07:29:19Z</time>
      </trkpt>
      <trkpt lat="50.04903" lon="4.77845">
        <ele>399.02</ele>
        <time>2015-09-13T07:29:24Z</time>
      </trkpt>
      <trkpt lat="50.0491" lon="4.77856">
        <ele>399.033</ele>
        <time>2015-09-13T07:29:30Z</time>
      </trkpt>
      <trkpt lat="50.04916" lon="4.77866">
        <ele>401.047</ele>
        <time>2015-09-13T07:29:37Z</time>
      </trkpt>
      <trkpt lat="50.04925" lon="4.77873">
        <ele>398.046</ele>
        <time>2015-09-13T07:29:45Z</time>
      </trkpt>
      <trkpt lat="50.04935" lon="4.77879">
        <ele>395.024</ele>
        <time>2015-09-13T07:29:54Z</time>
      </trkpt>
      <trkpt lat="50.04945" lon="4.77883">
        <ele>395.045</ele>
        <time>2015-09-13T07:30:02Z</time>
      </trkpt>
      <trkpt lat="50.04948" lon="4.77896">
        <ele>396.068</ele>
        <time>2015-09-13T07:30:13Z</time>
      </trkpt>
      <trkpt lat="50.04954" lon="4.77906">
        <ele>392.042</ele>
        <time>2015-09-13T07:30:21Z</time>
      </trkpt>
      <trkpt lat="50.04963" lon="4.77914">
        <ele>390.026</ele>
        <time>2015-09-13T07:30:29Z</time>
      </trkpt>
      <trkpt lat="50.04972" lon="4.77916">
        <ele>393.008</ele>
        <time>2015-09-13T07:30:35Z</time>
      </trkpt>
      <trkpt lat="50.04981" lon="4.77921">
        <ele>390.017</ele>
        <time>2015-09-13T07:30:42Z</time>
      </trkpt>
      <trkpt lat="50.04988" lon="4.7793">
        <ele>389.066</ele>
        <time>2015-09-13T07:30:49Z</time>
      </trkpt>
      <trkpt lat="50.04993" lon="4.77942">
        <ele>393.094</ele>
        <time>2015-09-13T07:30:56Z</time>
      </trkpt>
      <trkpt lat="50.04995" lon="4.77957">
        <ele>399.097</ele>
        <time>2015-09-13T07:31:04Z</time>
      </trkpt>
      <trkpt lat="50.04999" lon="4.77969">
        <ele>396.031</ele>
        <time>2015-09-13T07:31:14Z</time>
      </trkpt>
      <trkpt lat="50.05009" lon="4.77967">
        <ele>397.06</ele>
        <time>2015-09-13T07:31:19Z</time>
      </trkpt>
      <trkpt lat="50.05018" lon="4.7797">
        <ele>401.018</ele>
        <time>2015-09-13T07:31:25Z</time>
      </trkpt>
      <trkpt lat="50.05026" lon="4.7798">
        <ele>401.059</ele>
        <time>2015-09-13T07:31:34Z</time>
      </trkpt>
      <trkpt lat="50.05035" lon="4.77988">
        <ele>401.059</ele>
        <time>2015-09-13T07:31:41Z</time>
      </trkpt>
      <trkpt lat="50.05043" lon="4.77992">
        <ele>403.003</ele>
        <time>2015-09-13T07:31:49Z</time>
      </trkpt>
      <trkpt lat="50.05053" lon="4.77995">
        <ele>402.023</ele>
        <time>2015-09-13T07:32:02Z</time>
      </trkpt>
      <trkpt lat="50.05063" lon="4.77999">
        <ele>400.008</ele>
        <time>2015-09-13T07:32:28Z</time>
      </trkpt>
      <trkpt lat="50.05072" lon="4.78005">
        <ele>405.016</ele>
        <time>2015-09-13T07:32:33Z</time>
      </trkpt>
      <trkpt lat="50.05079" lon="4.78015">
        <ele>402.045</ele>
        <time>2015-09-13T07:32:40Z</time>
      </trkpt>
      <trkpt lat="50.05088" lon="4.78014">
        <ele>401.023</ele>
        <time>2015-09-13T07:32:45Z</time>
      </trkpt>
      <trkpt lat="50.05099" lon="4.78005">
        <ele>402.086</ele>
        <time>2015-09-13T07:32:54Z</time>
      </trkpt>
      <trkpt lat="50.05107" lon="4.77998">
        <ele>402.07</ele>
        <time>2015-09-13T07:32:57Z</time>
      </trkpt>
      <trkpt lat="50.05116" lon="4.77994">
        <ele>401.039</ele>
        <time>2015-09-13T07:33:02Z</time>
      </trkpt>
      <trkpt lat="50.05125" lon="4.77985">
        <ele>398.047</ele>
        <time>2015-09-13T07:33:12Z</time>
      </trkpt>
      <trkpt lat="50.05135" lon="4.77979">
        <ele>394.028</ele>
        <time>2015-09-13T07:33:19Z</time>
      </trkpt>
      <trkpt lat="50.05144" lon="4.77976">
        <ele>393.094</ele>
        <time>2015-09-13T07:33:25Z</time>
      </trkpt>
      <trkpt lat="50.05152" lon="4.7797">
        <ele>392.057</ele>
        <time>2015-09-13T07:33:30Z</time>
      </trkpt>
      <trkpt lat="50.05161" lon="4.7797">
        <ele>392.022</ele>
        <time>2015-09-13T07:33:38Z</time>
      </trkpt>
      <trkpt lat="50.05169" lon="4.77961">
        <ele>385.008</ele>
        <time>2015-09-13T07:33:46Z</time>
      </trkpt>
      <trkpt lat="50.05178" lon="4.77951">
        <ele>391.01</ele>
        <time>2015-09-13T07:33:54Z</time>
      </trkpt>
      <trkpt lat="50.05186" lon="4.77942">
        <ele>400.019</ele>
        <time>2015-09-13T07:34:03Z</time>
      </trkpt>
      <trkpt lat="50.05194" lon="4.77934">
        <ele>398.067</ele>
        <time>2015-09-13T07:34:08Z</time>
      </trkpt>
      <trkpt lat="50.05201" lon="4.77925">
        <ele>396.06</ele>
        <time>2015-09-13T07:34:15Z</time>
      </trkpt>
      <trkpt lat="50.05208" lon="4.77915">
        <ele>390.034</ele>
        <time>2015-09-13T07:34:24Z</time>
      </trkpt>
      <trkpt lat="50.05217" lon="4.7791">
        <ele>389.043</ele>
        <time>2015-09-13T07:34:30Z</time>
      </trkpt>
      <trkpt lat="50.05226" lon="4.77903">
        <ele>390.011</ele>
        <time>2015-09-13T07:34:37Z</time>
      </trkpt>
      <trkpt lat="50.05232" lon="4.77892">
        <ele>388.052</ele>
        <time>2015-09-13T07:34:43Z</time>
      </trkpt>
      <trkpt lat="50.05239" lon="4.77881">
        <ele>390.075</ele>
        <time>2015-09-13T07:34:48Z</time>
      </trkpt>
      <trkpt lat="50.05246" lon="4.77871">
        <ele>386.028</ele>
        <time>2015-09-13T07:34:57Z</time>
      </trkpt>
      <trkpt lat="50.05253" lon="4.77862">
        <ele>386.02</ele>
        <time>2015-09-13T07:35:07Z</time>
      </trkpt>
      <trkpt lat="50.05262" lon="4.77854">
        <ele>389.008</ele>
        <time>2015-09-13T07:35:14Z</time>
      </trkpt>
      <trkpt lat="50.05271" lon="4.7785">
        <ele>389.048</ele>
        <time>2015-09-13T07:35:23Z</time>
      </trkpt>
      <trkpt lat="50.0528" lon="4.77845">
        <ele>387.027</ele>
        <time>2015-09-13T07:35:34Z</time>
      </trkpt>
      <trkpt lat="50.0529" lon="4.77838">
        <ele>390.025</ele>
        <time>2015-09-13T07:35:40Z</time>
      </trkpt>
      <trkpt lat="50.05298" lon="4.77833">
        <ele>384.058</ele>
        <time>2015-09-13T07:35:49Z</time>
      </trkpt>
      <trkpt lat="50.05309" lon="4.77828">
        <ele>387.082</ele>
        <time>2015-09-13T07:35:57Z</time>
      </trkpt>
      <trkpt lat="50.05316" lon="4.77821">
        <ele>386.061</ele>
        <time>2015-09-13T07:36:04Z</time>
      </trkpt>
      <trkpt lat="50.05325" lon="4.77816">
        <ele>382.099</ele>
        <time>2015-09-13T07:36:13Z</time>
      </trkpt>
      <trkpt lat="50.05334" lon="4.77809">
        <ele>382.04</ele>
        <time>2015-09-13T07:36:49Z</time>
      </trkpt>
      <trkpt lat="50.05342" lon="4.77802">
        <ele>382.078</ele>
        <time>2015-09-13T07:37:06Z</time>
      </trkpt>
      <trkpt lat="50.05351" lon="4.77798">
        <ele>382.033</ele>
        <time>2015-09-13T07:37:10Z</time>
      </trkpt>
      <trkpt lat="50.05359" lon="4.7779">
        <ele>379.026</ele>
        <time>2015-09-13T07:37:15Z</time>
      </trkpt>
      <trkpt lat="50.05367" lon="4.77782">
        <ele>378.008</ele>
        <time>2015-09-13T07:37:20Z</time>
      </trkpt>
      <trkpt lat="50.05377" lon="4.77776">
        <ele>382.098</ele>
        <time>2015-09-13T07:37:26Z</time>
      </trkpt>
      <trkpt lat="50.05386" lon="4.77769">
        <ele>382.017</ele>
        <time>2015-09-13T07:37:32Z</time>
      </trkpt>
      <trkpt lat="50.05394" lon="4.77762">
        <ele>380.025</ele>
        <time>2015-09-13T07:37:40Z</time>
      </trkpt>
      <trkpt lat="50.05401" lon="4.77771">
        <ele>386.018</ele>
        <time>2015-09-13T07:37:48Z</time>
      </trkpt>
      <trkpt lat="50.05407" lon="4.77782">
        <ele>384.052</ele>
        <time>2015-09-13T07:38:01Z</time>
      </trkpt>
      <trkpt lat="50.05409" lon="4.77798">
        <ele>384.091</ele>
        <time>2015-09-13T07:38:09Z</time>
      </trkpt>
      <trkpt lat="50.05415" lon="4.77811">
        <ele>385.049</ele>
        <time>2015-09-13T07:38:20Z</time>
      </trkpt>
      <trkpt lat="50.0542" lon="4.77825">
        <ele>382.06</ele>
        <time>2015-09-13T07:38:28Z</time>
      </trkpt>
      <trkpt lat="50.05425" lon="4.77838">
        <ele>384.066</ele>
        <time>2015-09-13T07:38:35Z</time>
      </trkpt>
      <trkpt lat="50.05424" lon="4.77855">
        <ele>389.029</ele>
        <time>2015-09-13T07:38:43Z</time>
      </trkpt>
      <trkpt lat="50.05427" lon="4.77871">
        <ele>391.021</ele>
        <time>2015-09-13T07:38:51Z</time>
      </trkpt>
      <trkpt lat="50.05434" lon="4.77881">
        <ele>386.008</ele>
        <time>2015-09-13T07:38:58Z</time>
      </trkpt>
      <trkpt lat="50.05438" lon="4.77894">
        <ele>389.077</ele>
        <time>2015-09-13T07:39:06Z</time>
      </trkpt>
      <trkpt lat="50.05439" lon="4.77909">
        <ele>391.066</ele>
        <time>2015-09-13T07:39:13Z</time>
      </trkpt>
      <trkpt lat="50.05442" lon="4.77926">
        <ele>394.014</ele>
        <time>2015-09-13T07:39:22Z</time>
      </trkpt>
      <trkpt lat="50.05446" lon="4.77938">
        <ele>394.047</ele>
        <time>2015-09-13T07:39:29Z</time>
      </trkpt>
      <trkpt lat="50.05451" lon="4.77951">
        <ele>392.031</ele>
        <time>2015-09-13T07:39:37Z</time>
      </trkpt>
      <trkpt lat="50.05457" lon="4.77963">
        <ele>392.03</ele>
        <time>2015-09-13T07:39:45Z</time>
      </trkpt>
      <trkpt lat="50.05458" lon="4.77979">
        <ele>395.088</ele>
        <time>2015-09-13T07:39:52Z</time>
      </trkpt>
      <trkpt lat="50.05459" lon="4.77994">
        <ele>398.059</ele>
        <time>2015-09-13T07:39:59Z</time>
      </trkpt>
      <trkpt lat="50.05462" lon="4.78007">
        <ele>399.071</ele>
        <time>2015-09-13T07:40:06Z</time>
      </trkpt>
      <trkpt lat="50.05467" lon="4.78021">
        <ele>397.041</ele>
        <time>2015-09-13T07:40:14Z</time>
      </trkpt>
      <trkpt lat="50.05472" lon="4.78033">
        <ele>397.015</ele>
        <time>2015-09-13T07:40:22Z</time>
      </trkpt>
      <trkpt lat="50.05476" lon="4.78049">
        <ele>395.008</ele>
        <time>2015-09-13T07:40:27Z</time>
      </trkpt>
      <trkpt lat="50.05478" lon="4.78063">
        <ele>400.038</ele>
        <time>2015-09-13T07:40:37Z</time>
      </trkpt>
      <trkpt lat="50.05481" lon="4.78077">
        <ele>402.027</ele>
        <time>2015-09-13T07:40:47Z</time>
      </trkpt>
      <trkpt lat="50.05485" lon="4.7809">
        <ele>405.065</ele>
        <time>2015-09-13T07:40:56Z</time>
      </trkpt>
      <trkpt lat="50.05481" lon="4.78103">
        <ele>401.098</ele>
        <time>2015-09-13T07:42:23Z</time>
      </trkpt>
      <trkpt lat="50.05488" lon="4.78089">
        <ele>397.062</ele>
        <time>2015-09-13T07:43:19Z</time>
      </trkpt>
      <trkpt lat="50.05495" lon="4.78078">
        <ele>398.011</ele>
        <time>2015-09-13T07:43:25Z</time>
      </trkpt>
      <trkpt lat="50.05497" lon="4.78064">
        <ele>399.079</ele>
        <time>2015-09-13T07:43:34Z</time>
      </trkpt>
      <trkpt lat="50.05497" lon="4.78049">
        <ele>398.01</ele>
        <time>2015-09-13T07:43:48Z</time>
      </trkpt>
      <trkpt lat="50.05498" lon="4.78034">
        <ele>400.039</ele>
        <time>2015-09-13T07:44:00Z</time>
      </trkpt>
      <trkpt lat="50.055" lon="4.7802">
        <ele>398.001</ele>
        <time>2015-09-13T07:44:08Z</time>
      </trkpt>
      <trkpt lat="50.05502" lon="4.78005">
        <ele>397.021</ele>
        <time>2015-09-13T07:44:17Z</time>
      </trkpt>
      <trkpt lat="50.05501" lon="4.77991">
        <ele>397.008</ele>
        <time>2015-09-13T07:44:26Z</time>
      </trkpt>
      <trkpt lat="50.05502" lon="4.77975">
        <ele>398.064</ele>
        <time>2015-09-13T07:44:34Z</time>
      </trkpt>
      <trkpt lat="50.05505" lon="4.77961">
        <ele>404.053</ele>
        <time>2015-09-13T07:44:42Z</time>
      </trkpt>
      <trkpt lat="50.05504" lon="4.77947">
        <ele>406.071</ele>
        <time>2015-09-13T07:44:50Z</time>
      </trkpt>
      <trkpt lat="50.05504" lon="4.77932">
        <ele>406.054</ele>
        <time>2015-09-13T07:45:01Z</time>
      </trkpt>
      <trkpt lat="50.05503" lon="4.77918">
        <ele>405.038</ele>
        <time>2015-09-13T07:45:10Z</time>
      </trkpt>
      <trkpt lat="50.05502" lon="4.77903">
        <ele>406.037</ele>
        <time>2015-09-13T07:45:17Z</time>
      </trkpt>
      <trkpt lat="50.05505" lon="4.77889">
        <ele>403.095</ele>
        <time>2015-09-13T07:45:25Z</time>
      </trkpt>
      <trkpt lat="50.05503" lon="4.77873">
        <ele>399.086</ele>
        <time>2015-09-13T07:45:32Z</time>
      </trkpt>
      <trkpt lat="50.05501" lon="4.77859">
        <ele>394.044</ele>
        <time>2015-09-13T07:45:39Z</time>
      </trkpt>
      <trkpt lat="50.05505" lon="4.77844">
        <ele>395.005</ele>
        <time>2015-09-13T07:45:46Z</time>
      </trkpt>
      <trkpt lat="50.05507" lon="4.7783">
        <ele>390.015</ele>
        <time>2015-09-13T07:45:52Z</time>
      </trkpt>
      <trkpt lat="50.05512" lon="4.77816">
        <ele>392.008</ele>
        <time>2015-09-13T07:46:13Z</time>
      </trkpt>
      <trkpt lat="50.05512" lon="4.778">
        <ele>394.065</ele>
        <time>2015-09-13T07:46:19Z</time>
      </trkpt>
      <trkpt lat="50.05514" lon="4.77784">
        <ele>394.094</ele>
        <time>2015-09-13T07:46:25Z</time>
      </trkpt>
      <trkpt lat="50.05511" lon="4.7777">
        <ele>394.032</ele>
        <time>2015-09-13T07:46:30Z</time>
      </trkpt>
      <trkpt lat="50.05508" lon="4.77755">
        <ele>396.025</ele>
        <time>2015-09-13T07:46:36Z</time>
      </trkpt>
      <trkpt lat="50.05512" lon="4.77739">
        <ele>397.039</ele>
        <time>2015-09-13T07:46:42Z</time>
      </trkpt>
      <trkpt lat="50.05518" lon="4.77729">
        <ele>396.028</ele>
        <time>2015-09-13T07:46:47Z</time>
      </trkpt>
      <trkpt lat="50.05521" lon="4.77716">
        <ele>395.026</ele>
        <time>2015-09-13T07:46:57Z</time>
      </trkpt>
      <trkpt lat="50.0553" lon="4.77707">
        <ele>394.017</ele>
        <time>2015-09-13T07:47:05Z</time>
      </trkpt>
      <trkpt lat="50.05538" lon="4.77698">
        <ele>388.039</ele>
        <time>2015-09-13T07:47:12Z</time>
      </trkpt>
      <trkpt lat="50.05547" lon="4.777">
        <ele>388.001</ele>
        <time>2015-09-13T07:47:20Z</time>
      </trkpt>
      <trkpt lat="50.05556" lon="4.77697">
        <ele>389.021</ele>
        <time>2015-09-13T07:47:27Z</time>
      </trkpt>
      <trkpt lat="50.05563" lon="4.77687">
        <ele>385.008</ele>
        <time>2015-09-13T07:47:36Z</time>
      </trkpt>
      <trkpt lat="50.05571" lon="4.7768">
        <ele>386.054</ele>
        <time>2015-09-13T07:47:41Z</time>
      </trkpt>
      <trkpt lat="50.05579" lon="4.77673">
        <ele>391.013</ele>
        <time>2015-09-13T07:47:48Z</time>
      </trkpt>
      <trkpt lat="50.05588" lon="4.7767">
        <ele>391.091</ele>
        <time>2015-09-13T07:47:56Z</time>
      </trkpt>
      <trkpt lat="50.05598" lon="4.77664">
        <ele>394.024</ele>
        <time>2015-09-13T07:48:01Z</time>
      </trkpt>
      <trkpt lat="50.05606" lon="4.77656">
        <ele>390.028</ele>
        <time>2015-09-13T07:48:06Z</time>
      </trkpt>
      <trkpt lat="50.05615" lon="4.77648">
        <ele>391.047</ele>
        <time>2015-09-13T07:48:14Z</time>
      </trkpt>
      <trkpt lat="50.05624" lon="4.77645">
        <ele>391.065</ele>
        <time>2015-09-13T07:48:21Z</time>
      </trkpt>
      <trkpt lat="50.05633" lon="4.77636">
        <ele>388.066</ele>
        <time>2015-09-13T07:48:29Z</time>
      </trkpt>
      <trkpt lat="50.05637" lon="4.77624">
        <ele>381.091</ele>
        <time>2015-09-13T07:49:16Z</time>
      </trkpt>
      <trkpt lat="50.05647" lon="4.77616">
        <ele>381.081</ele>
        <time>2015-09-13T07:49:21Z</time>
      </trkpt>
      <trkpt lat="50.05656" lon="4.77613">
        <ele>383.019</ele>
        <time>2015-09-13T07:49:26Z</time>
      </trkpt>
      <trkpt lat="50.05666" lon="4.77606">
        <ele>387.008</ele>
        <time>2015-09-13T07:49:33Z</time>
      </trkpt>
      <trkpt lat="50.05675" lon="4.776">
        <ele>390.04</ele>
        <time>2015-09-13T07:49:41Z</time>
      </trkpt>
      <trkpt lat="50.05684" lon="4.77593">
        <ele>388.069</ele>
        <time>2015-09-13T07:49:49Z</time>
      </trkpt>
      <trkpt lat="50.05693" lon="4.77588">
        <ele>388.097</ele>
        <time>2015-09-13T07:49:59Z</time>
      </trkpt>
      <trkpt lat="50.05702" lon="4.77582">
        <ele>387.03</ele>
        <time>2015-09-13T07:50:05Z</time>
      </trkpt>
      <trkpt lat="50.05711" lon="4.77577">
        <ele>387.054</ele>
        <time>2015-09-13T07:50:12Z</time>
      </trkpt>
      <trkpt lat="50.0572" lon="4.77576">
        <ele>385.063</ele>
        <time>2015-09-13T07:50:24Z</time>
      </trkpt>
      <trkpt lat="50.05729" lon="4.77572">
        <ele>387.071</ele>
        <time>2015-09-13T07:50:31Z</time>
      </trkpt>
      <trkpt lat="50.05738" lon="4.77566">
        <ele>387.062</ele>
        <time>2015-09-13T07:50:45Z</time>
      </trkpt>
      <trkpt lat="50.05748" lon="4.77561">
        <ele>383.044</ele>
        <time>2015-09-13T07:50:52Z</time>
      </trkpt>
      <trkpt lat="50.05758" lon="4.77557">
        <ele>382.005</ele>
        <time>2015-09-13T07:50:58Z</time>
      </trkpt>
      <trkpt lat="50.05766" lon="4.77551">
        <ele>384.015</ele>
        <time>2015-09-13T07:51:05Z</time>
      </trkpt>
      <trkpt lat="50.05776" lon="4.77553">
        <ele>387.008</ele>
        <time>2015-09-13T07:51:13Z</time>
      </trkpt>
      <trkpt lat="50.05786" lon="4.77553">
        <ele>385.025</ele>
        <time>2015-09-13T07:51:18Z</time>
      </trkpt>
      <trkpt lat="50.05795" lon="4.77551">
        <ele>388.064</ele>
        <time>2015-09-13T07:51:26Z</time>
      </trkpt>
      <trkpt lat="50.05805" lon="4.77555">
        <ele>392.072</ele>
        <time>2015-09-13T07:51:37Z</time>
      </trkpt>
      <trkpt lat="50.05814" lon="4.77553">
        <ele>391.055</ele>
        <time>2015-09-13T07:51:48Z</time>
      </trkpt>
      <trkpt lat="50.05824" lon="4.77555">
        <ele>392.059</ele>
        <time>2015-09-13T07:51:53Z</time>
      </trkpt>
      <trkpt lat="50.05834" lon="4.77552">
        <ele>388.048</ele>
        <time>2015-09-13T07:52:00Z</time>
      </trkpt>
      <trkpt lat="50.05843" lon="4.77548">
        <ele>388.026</ele>
        <time>2015-09-13T07:52:07Z</time>
      </trkpt>
      <trkpt lat="50.05852" lon="4.77542">
        <ele>386.067</ele>
        <time>2015-09-13T07:52:13Z</time>
      </trkpt>
      <trkpt lat="50.05861" lon="4.77533">
        <ele>387.062</ele>
        <time>2015-09-13T07:52:20Z</time>
      </trkpt>
      <trkpt lat="50.05868" lon="4.77524">
        <ele>388.083</ele>
        <time>2015-09-13T07:52:25Z</time>
      </trkpt>
      <trkpt lat="50.05877" lon="4.77517">
        <ele>390.011</ele>
        <time>2015-09-13T07:52:31Z</time>
      </trkpt>
      <trkpt lat="50.05885" lon="4.77508">
        <ele>395.008</ele>
        <time>2015-09-13T07:52:40Z</time>
      </trkpt>
      <trkpt lat="50.05891" lon="4.77496">
        <ele>389.087</ele>
        <time>2015-09-13T07:52:47Z</time>
      </trkpt>
      <trkpt lat="50.05898" lon="4.77486">
        <ele>389.016</ele>
        <time>2015-09-13T07:52:54Z</time>
      </trkpt>
      <trkpt lat="50.05905" lon="4.77477">
        <ele>387.064</ele>
        <time>2015-09-13T07:53:05Z</time>
      </trkpt>
      <trkpt lat="50.05914" lon="4.7747">
        <ele>386.037</ele>
        <time>2015-09-13T07:53:12Z</time>
      </trkpt>
      <trkpt lat="50.0592" lon="4.77458">
        <ele>388.081</ele>
        <time>2015-09-13T07:53:20Z</time>
      </trkpt>
      <trkpt lat="50.05928" lon="4.77446">
        <ele>392.01</ele>
        <time>2015-09-13T07:53:28Z</time>
      </trkpt>
      <trkpt lat="50.05937" lon="4.77438">
        <ele>391.068</ele>
        <time>2015-09-13T07:53:37Z</time>
      </trkpt>
      <trkpt lat="50.05945" lon="4.77431">
        <ele>390.019</ele>
        <time>2015-09-13T07:53:44Z</time>
      </trkpt>
      <trkpt lat="50.05954" lon="4.77418">
        <ele>389.042</ele>
        <time>2015-09-13T07:53:50Z</time>
      </trkpt>
      <trkpt lat="50.05962" lon="4.7741">
        <ele>391.022</ele>
        <time>2015-09-13T07:53:55Z</time>
      </trkpt>
      <trkpt lat="50.0597" lon="4.77397">
        <ele>387.014</ele>
        <time>2015-09-13T07:54:08Z</time>
      </trkpt>
      <trkpt lat="50.05978" lon="4.77388">
        <ele>386.008</ele>
        <time>2015-09-13T07:54:14Z</time>
      </trkpt>
      <trkpt lat="50.05985" lon="4.77378">
        <ele>389.055</ele>
        <time>2015-09-13T07:54:21Z</time>
      </trkpt>
      <trkpt lat="50.05994" lon="4.77369">
        <ele>395.064</ele>
        <time>2015-09-13T07:54:28Z</time>
      </trkpt>
      <trkpt lat="50.05999" lon="4.77358">
        <ele>397.052</ele>
        <time>2015-09-13T07:54:36Z</time>
      </trkpt>
      <trkpt lat="50.06008" lon="4.77353">
        <ele>392.015</ele>
        <time>2015-09-13T07:54:43Z</time>
      </trkpt>
      <trkpt lat="50.06017" lon="4.77349">
        <ele>388.069</ele>
        <time>2015-09-13T07:54:56Z</time>
      </trkpt>
      <trkpt lat="50.06024" lon="4.7734">
        <ele>388.048</ele>
        <time>2015-09-13T07:55:03Z</time>
      </trkpt>
      <trkpt lat="50.06031" lon="4.77332">
        <ele>389.036</ele>
        <time>2015-09-13T07:55:09Z</time>
      </trkpt>
      <trkpt lat="50.06039" lon="4.77325">
        <ele>385.087</ele>
        <time>2015-09-13T07:55:16Z</time>
      </trkpt>
      <trkpt lat="50.06046" lon="4.77316">
        <ele>383.012</ele>
        <time>2015-09-13T07:55:22Z</time>
      </trkpt>
      <trkpt lat="50.06056" lon="4.77312">
        <ele>383.032</ele>
        <time>2015-09-13T07:55:28Z</time>
      </trkpt>
      <trkpt lat="50.06065" lon="4.77305">
        <ele>380.005</ele>
        <time>2015-09-13T07:55:35Z</time>
      </trkpt>
      <trkpt lat="50.06075" lon="4.77302">
        <ele>381.008</ele>
        <time>2015-09-13T07:55:43Z</time>
      </trkpt>
      <trkpt lat="50.06084" lon="4.77298">
        <ele>382.072</ele>
        <time>2015-09-13T07:55:51Z</time>
      </trkpt>
      <trkpt lat="50.06094" lon="4.77299">
        <ele>385.061</ele>
        <time>2015-09-13T07:55:58Z</time>
      </trkpt>
      <trkpt lat="50.06102" lon="4.77291">
        <ele>388.039</ele>
        <time>2015-09-13T07:56:08Z</time>
      </trkpt>
      <trkpt lat="50.06112" lon="4.77284">
        <ele>386.072</ele>
        <time>2015-09-13T07:56:16Z</time>
      </trkpt>
      <trkpt lat="50.06122" lon="4.77279">
        <ele>385.096</ele>
        <time>2015-09-13T07:56:23Z</time>
      </trkpt>
      <trkpt lat="50.06133" lon="4.77275">
        <ele>385.065</ele>
        <time>2015-09-13T07:56:31Z</time>
      </trkpt>
      <trkpt lat="50.06143" lon="4.77271">
        <ele>386.043</ele>
        <time>2015-09-13T07:56:35Z</time>
      </trkpt>
      <trkpt lat="50.06152" lon="4.77274">
        <ele>387.014</ele>
        <time>2015-09-13T07:56:42Z</time>
      </trkpt>
      <trkpt lat="50.06161" lon="4.77274">
        <ele>389.062</ele>
        <time>2015-09-13T07:56:49Z</time>
      </trkpt>
      <trkpt lat="50.0617" lon="4.77272">
        <ele>389.083</ele>
        <time>2015-09-13T07:56:54Z</time>
      </trkpt>
      <trkpt lat="50.06179" lon="4.77268">
        <ele>382.011</ele>
        <time>2015-09-13T07:57:06Z</time>
      </trkpt>
      <trkpt lat="50.06189" lon="4.77262">
        <ele>375.008</ele>
        <time>2015-09-13T07:57:14Z</time>
      </trkpt>
      <trkpt lat="50.06198" lon="4.77255">
        <ele>376.057</ele>
        <time>2015-09-13T07:57:20Z</time>
      </trkpt>
      <trkpt lat="50.06208" lon="4.77252">
        <ele>379.096</ele>
        <time>2015-09-13T07:57:28Z</time>
      </trkpt>
      <trkpt lat="50.06218" lon="4.77252">
        <ele>379.084</ele>
        <time>2015-09-13T07:57:35Z</time>
      </trkpt>
      <trkpt lat="50.06228" lon="4.77248">
        <ele>375.077</ele>
        <time>2015-09-13T07:57:45Z</time>
      </trkpt>
      <trkpt lat="50.06237" lon="4.77241">
        <ele>380.051</ele>
        <time>2015-09-13T07:57:51Z</time>
      </trkpt>
      <trkpt lat="50.06245" lon="4.77233">
        <ele>375.04</ele>
        <time>2015-09-13T07:57:58Z</time>
      </trkpt>
      <trkpt lat="50.06255" lon="4.77229">
        <ele>377.078</ele>
        <time>2015-09-13T07:58:05Z</time>
      </trkpt>
      <trkpt lat="50.06263" lon="4.77223">
        <ele>370.059</ele>
        <time>2015-09-13T07:58:13Z</time>
      </trkpt>
      <trkpt lat="50.06272" lon="4.77218">
        <ele>370.082</ele>
        <time>2015-09-13T07:58:21Z</time>
      </trkpt>
      <trkpt lat="50.06282" lon="4.77213">
        <ele>371.043</ele>
        <time>2015-09-13T07:58:26Z</time>
      </trkpt>
      <trkpt lat="50.06291" lon="4.77206">
        <ele>372.017</ele>
        <time>2015-09-13T07:58:31Z</time>
      </trkpt>
      <trkpt lat="50.06299" lon="4.77198">
        <ele>371.008</ele>
        <time>2015-09-13T07:58:38Z</time>
      </trkpt>
      <trkpt lat="50.06308" lon="4.77191">
        <ele>367.049</ele>
        <time>2015-09-13T07:59:07Z</time>
      </trkpt>
      <trkpt lat="50.06316" lon="4.77182">
        <ele>366.058</ele>
        <time>2015-09-13T07:59:11Z</time>
      </trkpt>
      <trkpt lat="50.06326" lon="4.77177">
        <ele>360.086</ele>
        <time>2015-09-13T07:59:15Z</time>
      </trkpt>
      <trkpt lat="50.06335" lon="4.77172">
        <ele>366.039</ele>
        <time>2015-09-13T07:59:21Z</time>
      </trkpt>
      <trkpt lat="50.06346" lon="4.77169">
        <ele>365.023</ele>
        <time>2015-09-13T07:59:26Z</time>
      </trkpt>
      <trkpt lat="50.06356" lon="4.77165">
        <ele>362.032</ele>
        <time>2015-09-13T07:59:31Z</time>
      </trkpt>
      <trkpt lat="50.06365" lon="4.77162">
        <ele>360.01</ele>
        <time>2015-09-13T07:59:37Z</time>
      </trkpt>
      <trkpt lat="50.06373" lon="4.77155">
        <ele>351.071</ele>
        <time>2015-09-13T07:59:46Z</time>
      </trkpt>
      <trkpt lat="50.06383" lon="4.77147">
        <ele>349.064</ele>
        <time>2015-09-13T07:59:51Z</time>
      </trkpt>
      <trkpt lat="50.06392" lon="4.77139">
        <ele>352.006</ele>
        <time>2015-09-13T07:59:57Z</time>
      </trkpt>
      <trkpt lat="50.06399" lon="4.7713">
        <ele>356.016</ele>
        <time>2015-09-13T08:00:01Z</time>
      </trkpt>
      <trkpt lat="50.06406" lon="4.77118">
        <ele>349.008</ele>
        <time>2015-09-13T08:00:06Z</time>
      </trkpt>
      <trkpt lat="50.06413" lon="4.77108">
        <ele>343.067</ele>
        <time>2015-09-13T08:00:17Z</time>
      </trkpt>
      <trkpt lat="50.06421" lon="4.77096">
        <ele>342.036</ele>
        <time>2015-09-13T08:00:24Z</time>
      </trkpt>
      <trkpt lat="50.06427" lon="4.77087">
        <ele>341.034</ele>
        <time>2015-09-13T08:00:30Z</time>
      </trkpt>
      <trkpt lat="50.06435" lon="4.77074">
        <ele>344.037</ele>
        <time>2015-09-13T08:00:38Z</time>
      </trkpt>
      <trkpt lat="50.0644" lon="4.77062">
        <ele>342.071</ele>
        <time>2015-09-13T08:00:45Z</time>
      </trkpt>
      <trkpt lat="50.06447" lon="4.77052">
        <ele>337.06</ele>
        <time>2015-09-13T08:00:53Z</time>
      </trkpt>
      <trkpt lat="50.06453" lon="4.7704">
        <ele>334.048</ele>
        <time>2015-09-13T08:01:02Z</time>
      </trkpt>
      <trkpt lat="50.0646" lon="4.77031">
        <ele>333.049</ele>
        <time>2015-09-13T08:01:08Z</time>
      </trkpt>
      <trkpt lat="50.06467" lon="4.77021">
        <ele>335.047</ele>
        <time>2015-09-13T08:01:14Z</time>
      </trkpt>
      <trkpt lat="50.06475" lon="4.77011">
        <ele>337.029</ele>
        <time>2015-09-13T08:01:22Z</time>
      </trkpt>
      <trkpt lat="50.06482" lon="4.77003">
        <ele>339.021</ele>
        <time>2015-09-13T08:01:30Z</time>
      </trkpt>
      <trkpt lat="50.06491" lon="4.76996">
        <ele>337.008</ele>
        <time>2015-09-13T08:01:38Z</time>
      </trkpt>
      <trkpt lat="50.065" lon="4.76992">
        <ele>338.035</ele>
        <time>2015-09-13T08:01:46Z</time>
      </trkpt>
      <trkpt lat="50.06505" lon="4.7698">
        <ele>334.014</ele>
        <time>2015-09-13T08:01:54Z</time>
      </trkpt>
      <trkpt lat="50.06513" lon="4.7697">
        <ele>332.082</ele>
        <time>2015-09-13T08:02:05Z</time>
      </trkpt>
      <trkpt lat="50.06523" lon="4.76962">
        <ele>335.085</ele>
        <time>2015-09-13T08:02:15Z</time>
      </trkpt>
      <trkpt lat="50.06532" lon="4.76959">
        <ele>333.029</ele>
        <time>2015-09-13T08:02:26Z</time>
      </trkpt>
      <trkpt lat="50.06539" lon="4.7695">
        <ele>329.058</ele>
        <time>2015-09-13T08:02:35Z</time>
      </trkpt>
      <trkpt lat="50.06548" lon="4.76944">
        <ele>329.046</ele>
        <time>2015-09-13T08:02:43Z</time>
      </trkpt>
      <trkpt lat="50.06557" lon="4.76934">
        <ele>331.087</ele>
        <time>2015-09-13T08:02:51Z</time>
      </trkpt>
      <trkpt lat="50.06566" lon="4.76927">
        <ele>332.036</ele>
        <time>2015-09-13T08:02:59Z</time>
      </trkpt>
      <trkpt lat="50.06574" lon="4.7692">
        <ele>333.017</ele>
        <time>2015-09-13T08:03:04Z</time>
      </trkpt>
      <trkpt lat="50.06582" lon="4.76908">
        <ele>333.018</ele>
        <time>2015-09-13T08:03:28Z</time>
      </trkpt>
      <trkpt lat="50.06585" lon="4.76893">
        <ele>327.008</ele>
        <time>2015-09-13T08:03:35Z</time>
      </trkpt>
      <trkpt lat="50.06591" lon="4.7688">
        <ele>319.054</ele>
        <time>2015-09-13T08:03:41Z</time>
      </trkpt>
      <trkpt lat="50.06597" lon="4.7687">
        <ele>317.083</ele>
        <time>2015-09-13T08:03:46Z</time>
      </trkpt>
      <trkpt lat="50.06604" lon="4.76861">
        <ele>315.081</ele>
        <time>2015-09-13T08:03:53Z</time>
      </trkpt>
      <trkpt lat="50.06611" lon="4.76851">
        <ele>323.014</ele>
        <time>2015-09-13T08:03:58Z</time>
      </trkpt>
      <trkpt lat="50.06619" lon="4.76844">
        <ele>330.048</ele>
        <time>2015-09-13T08:04:04Z</time>
      </trkpt>
      <trkpt lat="50.06627" lon="4.76835">
        <ele>332.097</ele>
        <time>2015-09-13T08:04:12Z</time>
      </trkpt>
      <trkpt lat="50.06635" lon="4.76828">
        <ele>331.095</ele>
        <time>2015-09-13T08:04:20Z</time>
      </trkpt>
      <trkpt lat="50.0664" lon="4.76816">
        <ele>327.026</ele>
        <time>2015-09-13T08:04:28Z</time>
      </trkpt>
      <trkpt lat="50.0665" lon="4.7681">
        <ele>327.061</ele>
        <time>2015-09-13T08:04:34Z</time>
      </trkpt>
      <trkpt lat="50.06657" lon="4.76801">
        <ele>327.021</ele>
        <time>2015-09-13T08:04:40Z</time>
      </trkpt>
      <trkpt lat="50.06661" lon="4.76788">
        <ele>318.013</ele>
        <time>2015-09-13T08:04:48Z</time>
      </trkpt>
      <trkpt lat="50.06667" lon="4.76777">
        <ele>322.008</ele>
        <time>2015-09-13T08:04:52Z</time>
      </trkpt>
      <trkpt lat="50.06675" lon="4.76768">
        <ele>324.047</ele>
        <time>2015-09-13T08:04:57Z</time>
      </trkpt>
      <trkpt lat="50.06683" lon="4.7676">
        <ele>313.016</ele>
        <time>2015-09-13T08:05:03Z</time>
      </trkpt>
      <trkpt lat="50.06689" lon="4.76747">
        <ele>310.064</ele>
        <time>2015-09-13T08:05:11Z</time>
      </trkpt>
      <trkpt lat="50.06697" lon="4.7674">
        <ele>310.077</ele>
        <time>2015-09-13T08:05:40Z</time>
      </trkpt>
      <trkpt lat="50.06704" lon="4.76733">
        <ele>311.071</ele>
        <time>2015-09-13T08:05:53Z</time>
      </trkpt>
      <trkpt lat="50.06714" lon="4.76725">
        <ele>312.01</ele>
        <time>2015-09-13T08:06:01Z</time>
      </trkpt>
      <trkpt lat="50.06723" lon="4.76722">
        <ele>314.048</ele>
        <time>2015-09-13T08:06:07Z</time>
      </trkpt>
      <trkpt lat="50.06732" lon="4.76719">
        <ele>316.069</ele>
        <time>2015-09-13T08:06:13Z</time>
      </trkpt>
      <trkpt lat="50.06737" lon="4.767">
        <ele>314.085</ele>
        <time>2015-09-13T08:06:29Z</time>
      </trkpt>
      <trkpt lat="50.06739" lon="4.76684">
        <ele>313.089</ele>
        <time>2015-09-13T08:06:31Z</time>
      </trkpt>
      <trkpt lat="50.06739" lon="4.76665">
        <ele>309.017</ele>
        <time>2015-09-13T08:06:34Z</time>
      </trkpt>
      <trkpt lat="50.06729" lon="4.76659">
        <ele>313.008</ele>
        <time>2015-09-13T08:06:38Z</time>
      </trkpt>
      <trkpt lat="50.06708" lon="4.76669">
        <ele>312.069</ele>
        <time>2015-09-13T08:06:39Z</time>
      </trkpt>
      <trkpt lat="50.06733" lon="4.76675">
        <ele>303.098</ele>
        <time>2015-09-13T08:06:43Z</time>
      </trkpt>
      <trkpt lat="50.06743" lon="4.76676">
        <ele>306.016</ele>
        <time>2015-09-13T08:06:52Z</time>
      </trkpt>
      <trkpt lat="50.06752" lon="4.76674">
        <ele>312.079</ele>
        <time>2015-09-13T08:06:59Z</time>
      </trkpt>
      <trkpt lat="50.06761" lon="4.76676">
        <ele>314.093</ele>
        <time>2015-09-13T08:07:20Z</time>
      </trkpt>
      <trkpt lat="50.06769" lon="4.76669">
        <ele>302.032</ele>
        <time>2015-09-13T08:07:24Z</time>
      </trkpt>
      <trkpt lat="50.06778" lon="4.76658">
        <ele>301.01</ele>
        <time>2015-09-13T08:07:29Z</time>
      </trkpt>
      <trkpt lat="50.06786" lon="4.76651">
        <ele>302.091</ele>
        <time>2015-09-13T08:07:33Z</time>
      </trkpt>
      <trkpt lat="50.06795" lon="4.76644">
        <ele>305.055</ele>
        <time>2015-09-13T08:07:39Z</time>
      </trkpt>
      <trkpt lat="50.06802" lon="4.76635">
        <ele>303.007</ele>
        <time>2015-09-13T08:07:45Z</time>
      </trkpt>
      <trkpt lat="50.0681" lon="4.76628">
        <ele>305.017</ele>
        <time>2015-09-13T08:07:50Z</time>
      </trkpt>
      <trkpt lat="50.06818" lon="4.76618">
        <ele>308.008</ele>
        <time>2015-09-13T08:07:55Z</time>
      </trkpt>
      <trkpt lat="50.06828" lon="4.76611">
        <ele>310.026</ele>
        <time>2015-09-13T08:08:01Z</time>
      </trkpt>
      <trkpt lat="50.06836" lon="4.76602">
        <ele>300.015</ele>
        <time>2015-09-13T08:08:08Z</time>
      </trkpt>
      <trkpt lat="50.06845" lon="4.76595">
        <ele>298.053</ele>
        <time>2015-09-13T08:08:15Z</time>
      </trkpt>
      <trkpt lat="50.06853" lon="4.76585">
        <ele>298.026</ele>
        <time>2015-09-13T08:08:20Z</time>
      </trkpt>
      <trkpt lat="50.0686" lon="4.76576">
        <ele>295.08</ele>
        <time>2015-09-13T08:08:29Z</time>
      </trkpt>
      <trkpt lat="50.0687" lon="4.7657">
        <ele>299.049</ele>
        <time>2015-09-13T08:08:34Z</time>
      </trkpt>
      <trkpt lat="50.06879" lon="4.76564">
        <ele>298.017</ele>
        <time>2015-09-13T08:08:39Z</time>
      </trkpt>
      <trkpt lat="50.06886" lon="4.76554">
        <ele>301.038</ele>
        <time>2015-09-13T08:08:45Z</time>
      </trkpt>
      <trkpt lat="50.06892" lon="4.7654">
        <ele>296.057</ele>
        <time>2015-09-13T08:09:29Z</time>
      </trkpt>
      <trkpt lat="50.069" lon="4.7653">
        <ele>297</ele>
        <time>2015-09-13T08:09:34Z</time>
      </trkpt>
      <trkpt lat="50.06909" lon="4.76523">
        <ele>294.02</ele>
        <time>2015-09-13T08:09:39Z</time>
      </trkpt>
      <trkpt lat="50.06915" lon="4.76511">
        <ele>298.008</ele>
        <time>2015-09-13T08:09:46Z</time>
      </trkpt>
      <trkpt lat="50.06924" lon="4.76502">
        <ele>293.096</ele>
        <time>2015-09-13T08:09:54Z</time>
      </trkpt>
      <trkpt lat="50.06933" lon="4.76497">
        <ele>295.015</ele>
        <time>2015-09-13T08:10:00Z</time>
      </trkpt>
      <trkpt lat="50.0694" lon="4.76486">
        <ele>293.043</ele>
        <time>2015-09-13T08:10:08Z</time>
      </trkpt>
      <trkpt lat="50.06949" lon="4.7648">
        <ele>288.016</ele>
        <time>2015-09-13T08:10:15Z</time>
      </trkpt>
      <trkpt lat="50.06957" lon="4.76473">
        <ele>286.08</ele>
        <time>2015-09-13T08:10:19Z</time>
      </trkpt>
      <trkpt lat="50.06964" lon="4.76465">
        <ele>291.029</ele>
        <time>2015-09-13T08:10:35Z</time>
      </trkpt>
      <trkpt lat="50.06974" lon="4.76463">
        <ele>289.097</ele>
        <time>2015-09-13T08:10:53Z</time>
      </trkpt>
      <trkpt lat="50.06984" lon="4.76458">
        <ele>292.078</ele>
        <time>2015-09-13T08:10:58Z</time>
      </trkpt>
      <trkpt lat="50.06992" lon="4.76452">
        <ele>280.048</ele>
        <time>2015-09-13T08:11:03Z</time>
      </trkpt>
      <trkpt lat="50.07001" lon="4.76449">
        <ele>283.061</ele>
        <time>2015-09-13T08:11:08Z</time>
      </trkpt>
      <trkpt lat="50.07009" lon="4.76441">
        <ele>283.017</ele>
        <time>2015-09-13T08:11:15Z</time>
      </trkpt>
      <trkpt lat="50.07018" lon="4.76437">
        <ele>292.008</ele>
        <time>2015-09-13T08:11:22Z</time>
      </trkpt>
      <trkpt lat="50.07027" lon="4.76438">
        <ele>295.075</ele>
        <time>2015-09-13T08:11:28Z</time>
      </trkpt>
      <trkpt lat="50.07037" lon="4.76432">
        <ele>297.094</ele>
        <time>2015-09-13T08:11:36Z</time>
      </trkpt>
      <trkpt lat="50.07044" lon="4.76423">
        <ele>290.072</ele>
        <time>2015-09-13T08:11:46Z</time>
      </trkpt>
      <trkpt lat="50.07047" lon="4.76409">
        <ele>290.095</ele>
        <time>2015-09-13T08:11:58Z</time>
      </trkpt>
      <trkpt lat="50.07047" lon="4.76391">
        <ele>292.059</ele>
        <time>2015-09-13T08:12:21Z</time>
      </trkpt>
      <trkpt lat="50.07045" lon="4.76374">
        <ele>291.018</ele>
        <time>2015-09-13T08:12:25Z</time>
      </trkpt>
      <trkpt lat="50.07043" lon="4.76359">
        <ele>296.046</ele>
        <time>2015-09-13T08:12:31Z</time>
      </trkpt>
      <trkpt lat="50.07042" lon="4.76343">
        <ele>291.097</ele>
        <time>2015-09-13T08:12:38Z</time>
      </trkpt>
      <trkpt lat="50.07037" lon="4.76332">
        <ele>296.085</ele>
        <time>2015-09-13T08:12:43Z</time>
      </trkpt>
      <trkpt lat="50.0703" lon="4.76321">
        <ele>296.089</ele>
        <time>2015-09-13T08:12:49Z</time>
      </trkpt>
      <trkpt lat="50.07023" lon="4.76308">
        <ele>297.017</ele>
        <time>2015-09-13T08:12:55Z</time>
      </trkpt>
      <trkpt lat="50.07016" lon="4.76298">
        <ele>297.008</ele>
        <time>2015-09-13T08:13:01Z</time>
      </trkpt>
      <trkpt lat="50.07009" lon="4.76288">
        <ele>296.029</ele>
        <time>2015-09-13T08:13:07Z</time>
      </trkpt>
      <trkpt lat="50.07004" lon="4.76276">
        <ele>295.098</ele>
        <time>2015-09-13T08:13:12Z</time>
      </trkpt>
      <trkpt lat="50.06997" lon="4.76265">
        <ele>292.046</ele>
        <time>2015-09-13T08:13:17Z</time>
      </trkpt>
      <trkpt lat="50.0699" lon="4.76255">
        <ele>289.079</ele>
        <time>2015-09-13T08:13:24Z</time>
      </trkpt>
      <trkpt lat="50.06985" lon="4.76243">
        <ele>291.023</ele>
        <time>2015-09-13T08:13:33Z</time>
      </trkpt>
      <trkpt lat="50.06982" lon="4.76229">
        <ele>289.062</ele>
        <time>2015-09-13T08:13:40Z</time>
      </trkpt>
      <trkpt lat="50.06978" lon="4.76216">
        <ele>288.05</ele>
        <time>2015-09-13T08:13:49Z</time>
      </trkpt>
      <trkpt lat="50.06979" lon="4.76202">
        <ele>290.041</ele>
        <time>2015-09-13T08:13:57Z</time>
      </trkpt>
      <trkpt lat="50.06976" lon="4.76187">
        <ele>289.088</ele>
        <time>2015-09-13T08:14:08Z</time>
      </trkpt>
      <trkpt lat="50.06971" lon="4.76173">
        <ele>285.024</ele>
        <time>2015-09-13T08:14:15Z</time>
      </trkpt>
      <trkpt lat="50.06964" lon="4.76162">
        <ele>284.026</ele>
        <time>2015-09-13T08:14:21Z</time>
      </trkpt>
      <trkpt lat="50.0696" lon="4.76148">
        <ele>289.008</ele>
        <time>2015-09-13T08:14:32Z</time>
      </trkpt>
      <trkpt lat="50.06952" lon="4.76134">
        <ele>287.069</ele>
        <time>2015-09-13T08:14:38Z</time>
      </trkpt>
      <trkpt lat="50.06944" lon="4.7612">
        <ele>286.098</ele>
        <time>2015-09-13T08:14:43Z</time>
      </trkpt>
      <trkpt lat="50.06939" lon="4.76107">
        <ele>279.086</ele>
        <time>2015-09-13T08:14:50Z</time>
      </trkpt>
      <trkpt lat="50.06932" lon="4.76098">
        <ele>285.079</ele>
        <time>2015-09-13T08:14:59Z</time>
      </trkpt>
      <trkpt lat="50.06925" lon="4.76084">
        <ele>287.023</ele>
        <time>2015-09-13T08:15:03Z</time>
      </trkpt>
      <trkpt lat="50.06918" lon="4.76074">
        <ele>286.062</ele>
        <time>2015-09-13T08:15:08Z</time>
      </trkpt>
      <trkpt lat="50.06916" lon="4.76058">
        <ele>289.05</ele>
        <time>2015-09-13T08:15:16Z</time>
      </trkpt>
      <trkpt lat="50.0691" lon="4.76045">
        <ele>279.051</ele>
        <time>2015-09-13T08:15:22Z</time>
      </trkpt>
      <trkpt lat="50.06902" lon="4.76035">
        <ele>272.053</ele>
        <time>2015-09-13T08:15:28Z</time>
      </trkpt>
      <trkpt lat="50.06895" lon="4.76025">
        <ele>267.004</ele>
        <time>2015-09-13T08:15:34Z</time>
      </trkpt>
      <trkpt lat="50.06887" lon="4.76019">
        <ele>265.014</ele>
        <time>2015-09-13T08:15:39Z</time>
      </trkpt>
      <trkpt lat="50.06878" lon="4.76012">
        <ele>266.008</ele>
        <time>2015-09-13T08:15:46Z</time>
      </trkpt>
      <trkpt lat="50.06873" lon="4.76">
        <ele>263.016</ele>
        <time>2015-09-13T08:15:57Z</time>
      </trkpt>
      <trkpt lat="50.06868" lon="4.75988">
        <ele>267.025</ele>
        <time>2015-09-13T08:16:02Z</time>
      </trkpt>
      <trkpt lat="50.06866" lon="4.75974">
        <ele>277.013</ele>
        <time>2015-09-13T08:16:18Z</time>
      </trkpt>
      <trkpt lat="50.06858" lon="4.75963">
        <ele>278.076</ele>
        <time>2015-09-13T08:16:30Z</time>
      </trkpt>
      <trkpt lat="50.06852" lon="4.75953">
        <ele>279.09</ele>
        <time>2015-09-13T08:16:35Z</time>
      </trkpt>
      <trkpt lat="50.06842" lon="4.75946">
        <ele>274.079</ele>
        <time>2015-09-13T08:16:40Z</time>
      </trkpt>
      <trkpt lat="50.06832" lon="4.75939">
        <ele>273.027</ele>
        <time>2015-09-13T08:16:45Z</time>
      </trkpt>
      <trkpt lat="50.06823" lon="4.75933">
        <ele>271.028</ele>
        <time>2015-09-13T08:16:51Z</time>
      </trkpt>
      <trkpt lat="50.06814" lon="4.75928">
        <ele>269.079</ele>
        <time>2015-09-13T08:16:57Z</time>
      </trkpt>
      <trkpt lat="50.06807" lon="4.75918">
        <ele>276.005</ele>
        <time>2015-09-13T08:17:05Z</time>
      </trkpt>
      <trkpt lat="50.06799" lon="4.75914">
        <ele>275.025</ele>
        <time>2015-09-13T08:17:17Z</time>
      </trkpt>
      <trkpt lat="50.06787" lon="4.7591">
        <ele>257.008</ele>
        <time>2015-09-13T08:17:20Z</time>
      </trkpt>
      <trkpt lat="50.06777" lon="4.75907">
        <ele>258.028</ele>
        <time>2015-09-13T08:17:23Z</time>
      </trkpt>
      <trkpt lat="50.06766" lon="4.75906">
        <ele>258.087</ele>
        <time>2015-09-13T08:17:27Z</time>
      </trkpt>
      <trkpt lat="50.06756" lon="4.75901">
        <ele>261.095</ele>
        <time>2015-09-13T08:17:32Z</time>
      </trkpt>
      <trkpt lat="50.06749" lon="4.75892">
        <ele>265.098</ele>
        <time>2015-09-13T08:17:39Z</time>
      </trkpt>
      <trkpt lat="50.06748" lon="4.75877">
        <ele>267.062</ele>
        <time>2015-09-13T08:17:46Z</time>
      </trkpt>
      <trkpt lat="50.06742" lon="4.75866">
        <ele>276.011</ele>
        <time>2015-09-13T08:17:53Z</time>
      </trkpt>
      <trkpt lat="50.06735" lon="4.75854">
        <ele>274.049</ele>
        <time>2015-09-13T08:18:00Z</time>
      </trkpt>
      <trkpt lat="50.06725" lon="4.7585">
        <ele>274.04</ele>
        <time>2015-09-13T08:18:06Z</time>
      </trkpt>
      <trkpt lat="50.06718" lon="4.75839">
        <ele>283.066</ele>
        <time>2015-09-13T08:18:22Z</time>
      </trkpt>
      <trkpt lat="50.06715" lon="4.75823">
        <ele>283.029</ele>
        <time>2015-09-13T08:18:28Z</time>
      </trkpt>
      <trkpt lat="50.06715" lon="4.75809">
        <ele>281.021</ele>
        <time>2015-09-13T08:18:36Z</time>
      </trkpt>
      <trkpt lat="50.0671" lon="4.75795">
        <ele>281.008</ele>
        <time>2015-09-13T08:18:41Z</time>
      </trkpt>
      <trkpt lat="50.0671" lon="4.75779">
        <ele>281.047</ele>
        <time>2015-09-13T08:18:48Z</time>
      </trkpt>
      <trkpt lat="50.06701" lon="4.75771">
        <ele>280.086</ele>
        <time>2015-09-13T08:18:53Z</time>
      </trkpt>
      <trkpt lat="50.06694" lon="4.75761">
        <ele>273.074</ele>
        <time>2015-09-13T08:19:00Z</time>
      </trkpt>
      <trkpt lat="50.06688" lon="4.75747">
        <ele>267.097</ele>
        <time>2015-09-13T08:19:09Z</time>
      </trkpt>
      <trkpt lat="50.06681" lon="4.75736">
        <ele>270.031</ele>
        <time>2015-09-13T08:19:14Z</time>
      </trkpt>
      <trkpt lat="50.06678" lon="4.75721">
        <ele>262.08</ele>
        <time>2015-09-13T08:19:21Z</time>
      </trkpt>
      <trkpt lat="50.06673" lon="4.75707">
        <ele>260.018</ele>
        <time>2015-09-13T08:19:32Z</time>
      </trkpt>
      <trkpt lat="50.0667" lon="4.75693">
        <ele>259.099</ele>
        <time>2015-09-13T08:19:39Z</time>
      </trkpt>
      <trkpt lat="50.06667" lon="4.75679">
        <ele>258.095</ele>
        <time>2015-09-13T08:19:45Z</time>
      </trkpt>
      <trkpt lat="50.06664" lon="4.75666">
        <ele>256.049</ele>
        <time>2015-09-13T08:19:53Z</time>
      </trkpt>
      <trkpt lat="50.0666" lon="4.75653">
        <ele>255.023</ele>
        <time>2015-09-13T08:20:01Z</time>
      </trkpt>
      <trkpt lat="50.06658" lon="4.75637">
        <ele>248.008</ele>
        <time>2015-09-13T08:20:08Z</time>
      </trkpt>
      <trkpt lat="50.06654" lon="4.75623">
        <ele>249.05</ele>
        <time>2015-09-13T08:20:26Z</time>
      </trkpt>
      <trkpt lat="50.06652" lon="4.75609">
        <ele>243.039</ele>
        <time>2015-09-13T08:20:33Z</time>
      </trkpt>
      <trkpt lat="50.06654" lon="4.75594">
        <ele>248.017</ele>
        <time>2015-09-13T08:20:41Z</time>
      </trkpt>
      <trkpt lat="50.06654" lon="4.75578">
        <ele>247.07</ele>
        <time>2015-09-13T08:20:50Z</time>
      </trkpt>
      <trkpt lat="50.0665" lon="4.75565">
        <ele>247.054</ele>
        <time>2015-09-13T08:20:56Z</time>
      </trkpt>
      <trkpt lat="50.06656" lon="4.75552">
        <ele>254.073</ele>
        <time>2015-09-13T08:21:03Z</time>
      </trkpt>
      <trkpt lat="50.06661" lon="4.75539">
        <ele>253.091</ele>
        <time>2015-09-13T08:21:11Z</time>
      </trkpt>
      <trkpt lat="50.06661" lon="4.75524">
        <ele>249.032</ele>
        <time>2015-09-13T08:21:18Z</time>
      </trkpt>
      <trkpt lat="50.06663" lon="4.75511">
        <ele>245.059</ele>
        <time>2015-09-13T08:21:24Z</time>
      </trkpt>
      <trkpt lat="50.06661" lon="4.75495">
        <ele>251.003</ele>
        <time>2015-09-13T08:21:32Z</time>
      </trkpt>
      <trkpt lat="50.06657" lon="4.7548">
        <ele>250.023</ele>
        <time>2015-09-13T08:21:39Z</time>
      </trkpt>
      <trkpt lat="50.06654" lon="4.75467">
        <ele>247.008</ele>
        <time>2015-09-13T08:21:45Z</time>
      </trkpt>
      <trkpt lat="50.06647" lon="4.75453">
        <ele>248.056</ele>
        <time>2015-09-13T08:21:50Z</time>
      </trkpt>
      <trkpt lat="50.06648" lon="4.75437">
        <ele>245.075</ele>
        <time>2015-09-13T08:21:57Z</time>
      </trkpt>
      <trkpt lat="50.06653" lon="4.75424">
        <ele>239.093</ele>
        <time>2015-09-13T08:22:02Z</time>
      </trkpt>
      <trkpt lat="50.06654" lon="4.7541">
        <ele>240.076</ele>
        <time>2015-09-13T08:22:08Z</time>
      </trkpt>
      <trkpt lat="50.06645" lon="4.75402">
        <ele>235.05</ele>
        <time>2015-09-13T08:22:14Z</time>
      </trkpt>
      <trkpt lat="50.06642" lon="4.75388">
        <ele>237.099</ele>
        <time>2015-09-13T08:22:21Z</time>
      </trkpt>
      <trkpt lat="50.06635" lon="4.75378">
        <ele>242.027</ele>
        <time>2015-09-13T08:22:30Z</time>
      </trkpt>
      <trkpt lat="50.06627" lon="4.75368">
        <ele>247.068</ele>
        <time>2015-09-13T08:22:37Z</time>
      </trkpt>
      <trkpt lat="50.06622" lon="4.75357">
        <ele>252.066</ele>
        <time>2015-09-13T08:22:42Z</time>
      </trkpt>
      <trkpt lat="50.0662" lon="4.75342">
        <ele>245.029</ele>
        <time>2015-09-13T08:22:53Z</time>
      </trkpt>
      <trkpt lat="50.06615" lon="4.75328">
        <ele>245.021</ele>
        <time>2015-09-13T08:23:04Z</time>
      </trkpt>
      <trkpt lat="50.06607" lon="4.75322">
        <ele>243.008</ele>
        <time>2015-09-13T08:23:10Z</time>
      </trkpt>
      <trkpt lat="50.06601" lon="4.7531">
        <ele>247.077</ele>
        <time>2015-09-13T08:23:18Z</time>
      </trkpt>
      <trkpt lat="50.06593" lon="4.75297">
        <ele>247.036</ele>
        <time>2015-09-13T08:23:24Z</time>
      </trkpt>
      <trkpt lat="50.06589" lon="4.75284">
        <ele>242.054</ele>
        <time>2015-09-13T08:23:30Z</time>
      </trkpt>
      <trkpt lat="50.06584" lon="4.75271">
        <ele>241.077</ele>
        <time>2015-09-13T08:23:38Z</time>
      </trkpt>
      <trkpt lat="50.06584" lon="4.75256">
        <ele>246.031</ele>
        <time>2015-09-13T08:23:47Z</time>
      </trkpt>
      <trkpt lat="50.06581" lon="4.75241">
        <ele>244.04</ele>
        <time>2015-09-13T08:23:53Z</time>
      </trkpt>
      <trkpt lat="50.06575" lon="4.75229">
        <ele>237.068</ele>
        <time>2015-09-13T08:23:59Z</time>
      </trkpt>
      <trkpt lat="50.06568" lon="4.75219">
        <ele>236.049</ele>
        <time>2015-09-13T08:24:04Z</time>
      </trkpt>
      <trkpt lat="50.06564" lon="4.75206">
        <ele>238.078</ele>
        <time>2015-09-13T08:24:10Z</time>
      </trkpt>
      <trkpt lat="50.0657" lon="4.75193">
        <ele>234.033</ele>
        <time>2015-09-13T08:24:17Z</time>
      </trkpt>
      <trkpt lat="50.06563" lon="4.75182">
        <ele>242.026</ele>
        <time>2015-09-13T08:24:25Z</time>
      </trkpt>
      <trkpt lat="50.06556" lon="4.75173">
        <ele>243.008</ele>
        <time>2015-09-13T08:24:30Z</time>
      </trkpt>
      <trkpt lat="50.0655" lon="4.75162">
        <ele>244.078</ele>
        <time>2015-09-13T08:24:36Z</time>
      </trkpt>
      <trkpt lat="50.06542" lon="4.75151">
        <ele>243.017</ele>
        <time>2015-09-13T08:24:42Z</time>
      </trkpt>
      <trkpt lat="50.06538" lon="4.75137">
        <ele>243.095</ele>
        <time>2015-09-13T08:24:48Z</time>
      </trkpt>
      <trkpt lat="50.06537" lon="4.75122">
        <ele>246.068</ele>
        <time>2015-09-13T08:24:57Z</time>
      </trkpt>
      <trkpt lat="50.06532" lon="4.75109">
        <ele>241.032</ele>
        <time>2015-09-13T08:25:03Z</time>
      </trkpt>
      <trkpt lat="50.06531" lon="4.75093">
        <ele>239.061</ele>
        <time>2015-09-13T08:25:09Z</time>
      </trkpt>
      <trkpt lat="50.06527" lon="4.7508">
        <ele>246.099</ele>
        <time>2015-09-13T08:25:16Z</time>
      </trkpt>
      <trkpt lat="50.06524" lon="4.75065">
        <ele>241.04</ele>
        <time>2015-09-13T08:25:23Z</time>
      </trkpt>
      <trkpt lat="50.06521" lon="4.7505">
        <ele>244.035</ele>
        <time>2015-09-13T08:25:29Z</time>
      </trkpt>
      <trkpt lat="50.06511" lon="4.75048">
        <ele>241.086</ele>
        <time>2015-09-13T08:25:37Z</time>
      </trkpt>
      <trkpt lat="50.06505" lon="4.75036">
        <ele>234.014</ele>
        <time>2015-09-13T08:25:46Z</time>
      </trkpt>
      <trkpt lat="50.06498" lon="4.75027">
        <ele>237.008</ele>
        <time>2015-09-13T08:25:53Z</time>
      </trkpt>
      <trkpt lat="50.06492" lon="4.75014">
        <ele>241.044</ele>
        <time>2015-09-13T08:26:03Z</time>
      </trkpt>
      <trkpt lat="50.06488" lon="4.75001">
        <ele>236.033</ele>
        <time>2015-09-13T08:26:12Z</time>
      </trkpt>
      <trkpt lat="50.0649" lon="4.74985">
        <ele>238.091</ele>
        <time>2015-09-13T08:26:19Z</time>
      </trkpt>
      <trkpt lat="50.06491" lon="4.7497">
        <ele>237.034</ele>
        <time>2015-09-13T08:26:25Z</time>
      </trkpt>
      <trkpt lat="50.06492" lon="4.74955">
        <ele>237.028</ele>
        <time>2015-09-13T08:26:36Z</time>
      </trkpt>
      <trkpt lat="50.0649" lon="4.74941">
        <ele>241.057</ele>
        <time>2015-09-13T08:26:46Z</time>
      </trkpt>
      <trkpt lat="50.06491" lon="4.74927">
        <ele>245.045</ele>
        <time>2015-09-13T08:26:53Z</time>
      </trkpt>
      <trkpt lat="50.06488" lon="4.74911">
        <ele>248.076</ele>
        <time>2015-09-13T08:27:00Z</time>
      </trkpt>
      <trkpt lat="50.06492" lon="4.74898">
        <ele>250.016</ele>
        <time>2015-09-13T08:27:10Z</time>
      </trkpt>
      <trkpt lat="50.06492" lon="4.74884">
        <ele>242.076</ele>
        <time>2015-09-13T08:27:17Z</time>
      </trkpt>
      <trkpt lat="50.06495" lon="4.7487">
        <ele>243.013</ele>
        <time>2015-09-13T08:27:24Z</time>
      </trkpt>
      <trkpt lat="50.06498" lon="4.74857">
        <ele>240.008</ele>
        <time>2015-09-13T08:27:30Z</time>
      </trkpt>
      <trkpt lat="50.065" lon="4.74841">
        <ele>241.012</ele>
        <time>2015-09-13T08:27:36Z</time>
      </trkpt>
      <trkpt lat="50.06502" lon="4.74827">
        <ele>243.071</ele>
        <time>2015-09-13T08:27:46Z</time>
      </trkpt>
      <trkpt lat="50.06509" lon="4.74816">
        <ele>243.089</ele>
        <time>2015-09-13T08:27:54Z</time>
      </trkpt>
      <trkpt lat="50.06514" lon="4.74805">
        <ele>247.092</ele>
        <time>2015-09-13T08:28:00Z</time>
      </trkpt>
      <trkpt lat="50.06521" lon="4.74794">
        <ele>251.066</ele>
        <time>2015-09-13T08:28:06Z</time>
      </trkpt>
      <trkpt lat="50.06523" lon="4.74779">
        <ele>249.035</ele>
        <time>2015-09-13T08:28:21Z</time>
      </trkpt>
      <trkpt lat="50.06529" lon="4.74767">
        <ele>251.033</ele>
        <time>2015-09-13T08:28:30Z</time>
      </trkpt>
      <trkpt lat="50.06535" lon="4.74756">
        <ele>242.064</ele>
        <time>2015-09-13T08:28:37Z</time>
      </trkpt>
      <trkpt lat="50.06543" lon="4.74748">
        <ele>239.097</ele>
        <time>2015-09-13T08:28:47Z</time>
      </trkpt>
      <trkpt lat="50.06551" lon="4.7474">
        <ele>232.023</ele>
        <time>2015-09-13T08:29:01Z</time>
      </trkpt>
      <trkpt lat="50.06559" lon="4.74732">
        <ele>227.025</ele>
        <time>2015-09-13T08:29:07Z</time>
      </trkpt>
      <trkpt lat="50.06568" lon="4.74727">
        <ele>221.008</ele>
        <time>2015-09-13T08:29:11Z</time>
      </trkpt>
      <trkpt lat="50.06576" lon="4.74719">
        <ele>222.04</ele>
        <time>2015-09-13T08:29:16Z</time>
      </trkpt>
      <trkpt lat="50.06587" lon="4.74714">
        <ele>222.079</ele>
        <time>2015-09-13T08:29:21Z</time>
      </trkpt>
      <trkpt lat="50.06597" lon="4.74708">
        <ele>227.047</ele>
        <time>2015-09-13T08:29:25Z</time>
      </trkpt>
      <trkpt lat="50.06607" lon="4.74704">
        <ele>224.09</ele>
        <time>2015-09-13T08:29:29Z</time>
      </trkpt>
      <trkpt lat="50.06616" lon="4.74703">
        <ele>227.094</ele>
        <time>2015-09-13T08:29:37Z</time>
      </trkpt>
      <trkpt lat="50.06622" lon="4.74691">
        <ele>227.093</ele>
        <time>2015-09-13T08:29:46Z</time>
      </trkpt>
      <trkpt lat="50.06632" lon="4.74685">
        <ele>227.071</ele>
        <time>2015-09-13T08:29:52Z</time>
      </trkpt>
      <trkpt lat="50.06638" lon="4.74674">
        <ele>220.052</ele>
        <time>2015-09-13T08:30:07Z</time>
      </trkpt>
      <trkpt lat="50.06645" lon="4.74666">
        <ele>224.028</ele>
        <time>2015-09-13T08:30:16Z</time>
      </trkpt>
      <trkpt lat="50.06655" lon="4.74665">
        <ele>226.089</ele>
        <time>2015-09-13T08:30:23Z</time>
      </trkpt>
      <trkpt lat="50.06665" lon="4.74668">
        <ele>229.017</ele>
        <time>2015-09-13T08:30:28Z</time>
      </trkpt>
      <trkpt lat="50.06674" lon="4.74671">
        <ele>229.008</ele>
        <time>2015-09-13T08:30:34Z</time>
      </trkpt>
      <trkpt lat="50.06683" lon="4.74669">
        <ele>222.033</ele>
        <time>2015-09-13T08:30:39Z</time>
      </trkpt>
      <trkpt lat="50.06693" lon="4.74666">
        <ele>217.022</ele>
        <time>2015-09-13T08:30:48Z</time>
      </trkpt>
      <trkpt lat="50.06701" lon="4.7466">
        <ele>217.03</ele>
        <time>2015-09-13T08:30:55Z</time>
      </trkpt>
      <trkpt lat="50.0671" lon="4.74661">
        <ele>219.083</ele>
        <time>2015-09-13T08:31:01Z</time>
      </trkpt>
      <trkpt lat="50.0672" lon="4.74655">
        <ele>217.087</ele>
        <time>2015-09-13T08:31:08Z</time>
      </trkpt>
      <trkpt lat="50.06729" lon="4.7465">
        <ele>217.026</ele>
        <time>2015-09-13T08:31:15Z</time>
      </trkpt>
      <trkpt lat="50.06737" lon="4.74647">
        <ele>219.014</ele>
        <time>2015-09-13T08:31:21Z</time>
      </trkpt>
      <trkpt lat="50.06747" lon="4.74647">
        <ele>220.075</ele>
        <time>2015-09-13T08:31:26Z</time>
      </trkpt>
      <trkpt lat="50.06754" lon="4.7464">
        <ele>223.077</ele>
        <time>2015-09-13T08:31:34Z</time>
      </trkpt>
      <trkpt lat="50.06762" lon="4.74631">
        <ele>218.061</ele>
        <time>2015-09-13T08:31:43Z</time>
      </trkpt>
      <trkpt lat="50.06771" lon="4.74633">
        <ele>219.027</ele>
        <time>2015-09-13T08:31:50Z</time>
      </trkpt>
      <trkpt lat="50.06775" lon="4.7462">
        <ele>215.008</ele>
        <time>2015-09-13T08:36:13Z</time>
      </trkpt>
      <trkpt lat="50.06784" lon="4.74614">
        <ele>218.078</ele>
        <time>2015-09-13T08:36:24Z</time>
      </trkpt>
      <trkpt lat="50.06789" lon="4.74626">
        <ele>216.037</ele>
        <time>2015-09-13T08:36:40Z</time>
      </trkpt>
      <trkpt lat="50.06794" lon="4.74641">
        <ele>218.075</ele>
        <time>2015-09-13T08:36:46Z</time>
      </trkpt>
      <trkpt lat="50.06802" lon="4.74649">
        <ele>221.028</ele>
        <time>2015-09-13T08:36:53Z</time>
      </trkpt>
      <trkpt lat="50.0681" lon="4.74657">
        <ele>210.082</ele>
        <time>2015-09-13T08:37:03Z</time>
      </trkpt>
      <trkpt lat="50.06819" lon="4.74666">
        <ele>206.031</ele>
        <time>2015-09-13T08:37:11Z</time>
      </trkpt>
      <trkpt lat="50.06828" lon="4.74674">
        <ele>209.029</ele>
        <time>2015-09-13T08:37:24Z</time>
      </trkpt>
      <trkpt lat="50.06837" lon="4.74674">
        <ele>219.03</ele>
        <time>2015-09-13T08:37:36Z</time>
      </trkpt>
      <trkpt lat="50.06847" lon="4.74674">
        <ele>212.046</ele>
        <time>2015-09-13T08:37:48Z</time>
      </trkpt>
      <trkpt lat="50.06856" lon="4.7467">
        <ele>207.088</ele>
        <time>2015-09-13T08:37:55Z</time>
      </trkpt>
      <trkpt lat="50.06853" lon="4.74656">
        <ele>211.016</ele>
        <time>2015-09-13T08:38:02Z</time>
      </trkpt>
      <trkpt lat="50.06858" lon="4.74643">
        <ele>213.008</ele>
        <time>2015-09-13T08:38:10Z</time>
      </trkpt>
      <trkpt lat="50.0686" lon="4.74629">
        <ele>215.055</ele>
        <time>2015-09-13T08:38:15Z</time>
      </trkpt>
      <trkpt lat="50.06863" lon="4.74615">
        <ele>216.074</ele>
        <time>2015-09-13T08:38:24Z</time>
      </trkpt>
      <trkpt lat="50.06859" lon="4.74602">
        <ele>213.072</ele>
        <time>2015-09-13T08:38:30Z</time>
      </trkpt>
      <trkpt lat="50.06863" lon="4.74588">
        <ele>210.055</ele>
        <time>2015-09-13T08:38:36Z</time>
      </trkpt>
      <trkpt lat="50.06867" lon="4.74575">
        <ele>209.089</ele>
        <time>2015-09-13T08:38:54Z</time>
      </trkpt>
      <trkpt lat="50.06874" lon="4.74565">
        <ele>212.048</ele>
        <time>2015-09-13T08:39:01Z</time>
      </trkpt>
      <trkpt lat="50.06881" lon="4.74554">
        <ele>212.066</ele>
        <time>2015-09-13T08:39:05Z</time>
      </trkpt>
      <trkpt lat="50.06886" lon="4.74542">
        <ele>211.017</ele>
        <time>2015-09-13T08:39:10Z</time>
      </trkpt>
      <trkpt lat="50.06894" lon="4.74535">
        <ele>208.057</ele>
        <time>2015-09-13T08:39:15Z</time>
      </trkpt>
      <trkpt lat="50.06903" lon="4.74529">
        <ele>204</ele>
        <time>2015-09-13T08:39:21Z</time>
      </trkpt>
      <trkpt lat="50.06911" lon="4.74521">
        <ele>204.02</ele>
        <time>2015-09-13T08:39:28Z</time>
      </trkpt>
      <trkpt lat="50.0692" lon="4.74514">
        <ele>202.008</ele>
        <time>2015-09-13T08:39:35Z</time>
      </trkpt>
      <trkpt lat="50.06924" lon="4.74502">
        <ele>201.096</ele>
        <time>2015-09-13T08:39:43Z</time>
      </trkpt>
      <trkpt lat="50.06925" lon="4.74487">
        <ele>207.025</ele>
        <time>2015-09-13T08:39:49Z</time>
      </trkpt>
      <trkpt lat="50.06932" lon="4.74474">
        <ele>203.033</ele>
        <time>2015-09-13T08:39:54Z</time>
      </trkpt>
      <trkpt lat="50.06938" lon="4.74462">
        <ele>204.026</ele>
        <time>2015-09-13T08:39:59Z</time>
      </trkpt>
      <trkpt lat="50.06942" lon="4.74449">
        <ele>203.08</ele>
        <time>2015-09-13T08:40:06Z</time>
      </trkpt>
      <trkpt lat="50.06947" lon="4.74437">
        <ele>204.019</ele>
        <time>2015-09-13T08:40:15Z</time>
      </trkpt>
      <trkpt lat="50.06951" lon="4.74422">
        <ele>208.057</ele>
        <time>2015-09-13T08:40:24Z</time>
      </trkpt>
      <trkpt lat="50.06958" lon="4.74412">
        <ele>212.038</ele>
        <time>2015-09-13T08:40:31Z</time>
      </trkpt>
      <trkpt lat="50.06961" lon="4.74398">
        <ele>218.013</ele>
        <time>2015-09-13T08:40:39Z</time>
      </trkpt>
      <trkpt lat="50.06966" lon="4.74386">
        <ele>217.043</ele>
        <time>2015-09-13T08:40:45Z</time>
      </trkpt>
      <trkpt lat="50.06974" lon="4.74375">
        <ele>219.007</ele>
        <time>2015-09-13T08:40:55Z</time>
      </trkpt>
      <trkpt lat="50.06979" lon="4.74365">
        <ele>222.008</ele>
        <time>2015-09-13T08:41:02Z</time>
      </trkpt>
      <trkpt lat="50.06986" lon="4.74354">
        <ele>222.072</ele>
        <time>2015-09-13T08:41:06Z</time>
      </trkpt>
      <trkpt lat="50.06995" lon="4.74349">
        <ele>215.081</ele>
        <time>2015-09-13T08:41:12Z</time>
      </trkpt>
      <trkpt lat="50.07004" lon="4.74345">
        <ele>219.019</ele>
        <time>2015-09-13T08:41:18Z</time>
      </trkpt>
      <trkpt lat="50.07012" lon="4.74335">
        <ele>214.012</ele>
        <time>2015-09-13T08:41:27Z</time>
      </trkpt>
      <trkpt lat="50.0702" lon="4.74325">
        <ele>210.076</ele>
        <time>2015-09-13T08:41:35Z</time>
      </trkpt>
      <trkpt lat="50.07028" lon="4.74317">
        <ele>207.045</ele>
        <time>2015-09-13T08:41:43Z</time>
      </trkpt>
      <trkpt lat="50.07034" lon="4.74305">
        <ele>208.023</ele>
        <time>2015-09-13T08:41:52Z</time>
      </trkpt>
      <trkpt lat="50.07043" lon="4.74303">
        <ele>212.024</ele>
        <time>2015-09-13T08:42:03Z</time>
      </trkpt>
      <trkpt lat="50.07055" lon="4.74297">
        <ele>209.095</ele>
        <time>2015-09-13T08:42:17Z</time>
      </trkpt>
      <trkpt lat="50.07063" lon="4.7429">
        <ele>204.049</ele>
        <time>2015-09-13T08:42:19Z</time>
      </trkpt>
      <trkpt lat="50.0707" lon="4.7428">
        <ele>195.023</ele>
        <time>2015-09-13T08:42:25Z</time>
      </trkpt>
      <trkpt lat="50.07079" lon="4.74275">
        <ele>199.008</ele>
        <time>2015-09-13T08:42:32Z</time>
      </trkpt>
      <trkpt lat="50.07086" lon="4.74265">
        <ele>199.02</ele>
        <time>2015-09-13T08:42:38Z</time>
      </trkpt>
      <trkpt lat="50.07094" lon="4.74256">
        <ele>201.019</ele>
        <time>2015-09-13T08:42:45Z</time>
      </trkpt>
      <trkpt lat="50.07101" lon="4.74245">
        <ele>203.077</ele>
        <time>2015-09-13T08:42:51Z</time>
      </trkpt>
      <trkpt lat="50.07106" lon="4.7423">
        <ele>211.02</ele>
        <time>2015-09-13T08:42:57Z</time>
      </trkpt>
      <trkpt lat="50.07111" lon="4.74218">
        <ele>209.064</ele>
        <time>2015-09-13T08:43:03Z</time>
      </trkpt>
      <trkpt lat="50.07117" lon="4.74206">
        <ele>203.063</ele>
        <time>2015-09-13T08:43:09Z</time>
      </trkpt>
      <trkpt lat="50.07126" lon="4.74199">
        <ele>203.061</ele>
        <time>2015-09-13T08:43:14Z</time>
      </trkpt>
      <trkpt lat="50.07134" lon="4.74191">
        <ele>203.012</ele>
        <time>2015-09-13T08:43:24Z</time>
      </trkpt>
      <trkpt lat="50.07141" lon="4.7418">
        <ele>204.049</ele>
        <time>2015-09-13T08:43:31Z</time>
      </trkpt>
      <trkpt lat="50.07148" lon="4.7417">
        <ele>207.002</ele>
        <time>2015-09-13T08:43:39Z</time>
      </trkpt>
      <trkpt lat="50.07157" lon="4.7417">
        <ele>205.022</ele>
        <time>2015-09-13T08:43:45Z</time>
      </trkpt>
      <trkpt lat="50.07166" lon="4.74166">
        <ele>202.008</ele>
        <time>2015-09-13T08:43:51Z</time>
      </trkpt>
      <trkpt lat="50.07175" lon="4.74157">
        <ele>202.035</ele>
        <time>2015-09-13T08:43:58Z</time>
      </trkpt>
      <trkpt lat="50.07183" lon="4.7415">
        <ele>204.084</ele>
        <time>2015-09-13T08:44:04Z</time>
      </trkpt>
      <trkpt lat="50.07192" lon="4.74145">
        <ele>201.052</ele>
        <time>2015-09-13T08:44:11Z</time>
      </trkpt>
      <trkpt lat="50.07201" lon="4.74142">
        <ele>203.035</ele>
        <time>2015-09-13T08:44:17Z</time>
      </trkpt>
      <trkpt lat="50.07211" lon="4.7414">
        <ele>201.079</ele>
        <time>2015-09-13T08:44:22Z</time>
      </trkpt>
      <trkpt lat="50.07221" lon="4.74142">
        <ele>204.088</ele>
        <time>2015-09-13T08:44:38Z</time>
      </trkpt>
      <trkpt lat="50.0723" lon="4.74147">
        <ele>201.056</ele>
        <time>2015-09-13T08:44:44Z</time>
      </trkpt>
      <trkpt lat="50.0724" lon="4.7415">
        <ele>207.097</ele>
        <time>2015-09-13T08:44:50Z</time>
      </trkpt>
      <trkpt lat="50.07249" lon="4.74151">
        <ele>212.059</ele>
        <time>2015-09-13T08:44:56Z</time>
      </trkpt>
      <trkpt lat="50.07258" lon="4.74151">
        <ele>214.003</ele>
        <time>2015-09-13T08:45:03Z</time>
      </trkpt>
      <trkpt lat="50.07268" lon="4.74148">
        <ele>213.023</ele>
        <time>2015-09-13T08:45:12Z</time>
      </trkpt>
      <trkpt lat="50.07277" lon="4.74149">
        <ele>217.008</ele>
        <time>2015-09-13T08:45:19Z</time>
      </trkpt>
      <trkpt lat="50.07287" lon="4.74152">
        <ele>218.046</ele>
        <time>2015-09-13T08:45:28Z</time>
      </trkpt>
      <trkpt lat="50.07297" lon="4.74156">
        <ele>215.085</ele>
        <time>2015-09-13T08:45:33Z</time>
      </trkpt>
      <trkpt lat="50.07306" lon="4.74154">
        <ele>216.093</ele>
        <time>2015-09-13T08:45:40Z</time>
      </trkpt>
      <trkpt lat="50.07314" lon="4.74163">
        <ele>205.016</ele>
        <time>2015-09-13T08:45:45Z</time>
      </trkpt>
      <trkpt lat="50.07324" lon="4.74165">
        <ele>205.01</ele>
        <time>2015-09-13T08:45:52Z</time>
      </trkpt>
      <trkpt lat="50.07332" lon="4.74171">
        <ele>204.069</ele>
        <time>2015-09-13T08:46:02Z</time>
      </trkpt>
      <trkpt lat="50.07341" lon="4.74176">
        <ele>210.097</ele>
        <time>2015-09-13T08:46:12Z</time>
      </trkpt>
      <trkpt lat="50.0735" lon="4.74176">
        <ele>205.078</ele>
        <time>2015-09-13T08:46:18Z</time>
      </trkpt>
      <trkpt lat="50.07361" lon="4.74179">
        <ele>208.032</ele>
        <time>2015-09-13T08:46:27Z</time>
      </trkpt>
      <trkpt lat="50.0737" lon="4.74179">
        <ele>208.092</ele>
        <time>2015-09-13T08:46:32Z</time>
      </trkpt>
      <trkpt lat="50.07379" lon="4.74177">
        <ele>213.011</ele>
        <time>2015-09-13T08:46:39Z</time>
      </trkpt>
      <trkpt lat="50.0739" lon="4.74183">
        <ele>216.008</ele>
        <time>2015-09-13T08:46:46Z</time>
      </trkpt>
      <trkpt lat="50.074" lon="4.74188">
        <ele>213.044</ele>
        <time>2015-09-13T08:46:50Z</time>
      </trkpt>
      <trkpt lat="50.07409" lon="4.74193">
        <ele>208.093</ele>
        <time>2015-09-13T08:46:56Z</time>
      </trkpt>
      <trkpt lat="50.07418" lon="4.74191">
        <ele>206.071</ele>
        <time>2015-09-13T08:47:02Z</time>
      </trkpt>
      <trkpt lat="50.07428" lon="4.74191">
        <ele>208.014</ele>
        <time>2015-09-13T08:47:08Z</time>
      </trkpt>
      <trkpt lat="50.07438" lon="4.7419">
        <ele>208.078</ele>
        <time>2015-09-13T08:47:14Z</time>
      </trkpt>
      <trkpt lat="50.07447" lon="4.74188">
        <ele>201.017</ele>
        <time>2015-09-13T08:47:22Z</time>
      </trkpt>
      <trkpt lat="50.07457" lon="4.74183">
        <ele>200.055</ele>
        <time>2015-09-13T08:47:29Z</time>
      </trkpt>
      <trkpt lat="50.07465" lon="4.74191">
        <ele>208.086</ele>
        <time>2015-09-13T08:47:35Z</time>
      </trkpt>
      <trkpt lat="50.07473" lon="4.74196">
        <ele>213.091</ele>
        <time>2015-09-13T08:47:41Z</time>
      </trkpt>
      <trkpt lat="50.07484" lon="4.74196">
        <ele>207.081</ele>
        <time>2015-09-13T08:47:49Z</time>
      </trkpt>
      <trkpt lat="50.07494" lon="4.74195">
        <ele>204.019</ele>
        <time>2015-09-13T08:47:55Z</time>
      </trkpt>
      <trkpt lat="50.07502" lon="4.74189">
        <ele>204.008</ele>
        <time>2015-09-13T08:48:01Z</time>
      </trkpt>
      <trkpt lat="50.07511" lon="4.74185">
        <ele>210.08</ele>
        <time>2015-09-13T08:48:09Z</time>
      </trkpt>
      <trkpt lat="50.0752" lon="4.74182">
        <ele>217.049</ele>
        <time>2015-09-13T08:48:17Z</time>
      </trkpt>
      <trkpt lat="50.07529" lon="4.74183">
        <ele>216.087</ele>
        <time>2015-09-13T08:48:22Z</time>
      </trkpt>
      <trkpt lat="50.07539" lon="4.74181">
        <ele>211.09</ele>
        <time>2015-09-13T08:48:30Z</time>
      </trkpt>
      <trkpt lat="50.07549" lon="4.74177">
        <ele>212.094</ele>
        <time>2015-09-13T08:48:38Z</time>
      </trkpt>
      <trkpt lat="50.07558" lon="4.74172">
        <ele>213.083</ele>
        <time>2015-09-13T08:48:43Z</time>
      </trkpt>
      <trkpt lat="50.07568" lon="4.74172">
        <ele>208.021</ele>
        <time>2015-09-13T08:48:50Z</time>
      </trkpt>
      <trkpt lat="50.07578" lon="4.74173">
        <ele>208.012</ele>
        <time>2015-09-13T08:48:56Z</time>
      </trkpt>
      <trkpt lat="50.07587" lon="4.74175">
        <ele>203.021</ele>
        <time>2015-09-13T08:49:02Z</time>
      </trkpt>
      <trkpt lat="50.07596" lon="4.74177">
        <ele>204.041</ele>
        <time>2015-09-13T08:49:07Z</time>
      </trkpt>
      <trkpt lat="50.07605" lon="4.7418">
        <ele>201.005</ele>
        <time>2015-09-13T08:49:12Z</time>
      </trkpt>
      <trkpt lat="50.07615" lon="4.74178">
        <ele>202.008</ele>
        <time>2015-09-13T08:49:21Z</time>
      </trkpt>
      <trkpt lat="50.07623" lon="4.74179">
        <ele>202.063</ele>
        <time>2015-09-13T08:49:35Z</time>
      </trkpt>
      <trkpt lat="50.07633" lon="4.7418">
        <ele>200.012</ele>
        <time>2015-09-13T08:49:44Z</time>
      </trkpt>
      <trkpt lat="50.07643" lon="4.74183">
        <ele>200.07</ele>
        <time>2015-09-13T08:49:50Z</time>
      </trkpt>
      <trkpt lat="50.07653" lon="4.74186">
        <ele>198.063</ele>
        <time>2015-09-13T08:49:54Z</time>
      </trkpt>
      <trkpt lat="50.07662" lon="4.74194">
        <ele>195.097</ele>
        <time>2015-09-13T08:49:57Z</time>
      </trkpt>
      <trkpt lat="50.07672" lon="4.74197">
        <ele>196.056</ele>
        <time>2015-09-13T08:50:01Z</time>
      </trkpt>
      <trkpt lat="50.07678" lon="4.74207">
        <ele>193.064</ele>
        <time>2015-09-13T08:50:10Z</time>
      </trkpt>
      <trkpt lat="50.07687" lon="4.74212">
        <ele>200.035</ele>
        <time>2015-09-13T08:50:20Z</time>
      </trkpt>
      <trkpt lat="50.07696" lon="4.74217">
        <ele>198.087</ele>
        <time>2015-09-13T08:50:26Z</time>
      </trkpt>
      <trkpt lat="50.07705" lon="4.74226">
        <ele>196.042</ele>
        <time>2015-09-13T08:50:51Z</time>
      </trkpt>
      <trkpt lat="50.07713" lon="4.74233">
        <ele>197.026</ele>
        <time>2015-09-13T08:50:54Z</time>
      </trkpt>
      <trkpt lat="50.07722" lon="4.74242">
        <ele>195.008</ele>
        <time>2015-09-13T08:50:58Z</time>
      </trkpt>
      <trkpt lat="50.07729" lon="4.74256">
        <ele>197.089</ele>
        <time>2015-09-13T08:51:04Z</time>
      </trkpt>
      <trkpt lat="50.07736" lon="4.74265">
        <ele>199.028</ele>
        <time>2015-09-13T08:51:09Z</time>
      </trkpt>
      <trkpt lat="50.07746" lon="4.74267">
        <ele>194.086</ele>
        <time>2015-09-13T08:51:14Z</time>
      </trkpt>
      <trkpt lat="50.07757" lon="4.74268">
        <ele>199.079</ele>
        <time>2015-09-13T08:51:23Z</time>
      </trkpt>
      <trkpt lat="50.07764" lon="4.74277">
        <ele>201.063</ele>
        <time>2015-09-13T08:51:29Z</time>
      </trkpt>
      <trkpt lat="50.07772" lon="4.74285">
        <ele>195.092</ele>
        <time>2015-09-13T08:51:37Z</time>
      </trkpt>
      <trkpt lat="50.0778" lon="4.74295">
        <ele>192.03</ele>
        <time>2015-09-13T08:51:42Z</time>
      </trkpt>
      <trkpt lat="50.07789" lon="4.74302">
        <ele>189.031</ele>
        <time>2015-09-13T08:51:48Z</time>
      </trkpt>
      <trkpt lat="50.07797" lon="4.7431">
        <ele>188.088</ele>
        <time>2015-09-13T08:51:54Z</time>
      </trkpt>
      <trkpt lat="50.07804" lon="4.74318">
        <ele>193.024</ele>
        <time>2015-09-13T08:52:02Z</time>
      </trkpt>
      <trkpt lat="50.07813" lon="4.74326">
        <ele>192.026</ele>
        <time>2015-09-13T08:52:08Z</time>
      </trkpt>
      <trkpt lat="50.0782" lon="4.74337">
        <ele>192.008</ele>
        <time>2015-09-13T08:52:17Z</time>
      </trkpt>
      <trkpt lat="50.07827" lon="4.74346">
        <ele>191.079</ele>
        <time>2015-09-13T08:52:23Z</time>
      </trkpt>
      <trkpt lat="50.07834" lon="4.74356">
        <ele>197.078</ele>
        <time>2015-09-13T08:52:33Z</time>
      </trkpt>
      <trkpt lat="50.0784" lon="4.74368">
        <ele>196.026</ele>
        <time>2015-09-13T08:52:41Z</time>
      </trkpt>
      <trkpt lat="50.07847" lon="4.74379">
        <ele>201.049</ele>
        <time>2015-09-13T08:52:54Z</time>
      </trkpt>
      <trkpt lat="50.07856" lon="4.74375">
        <ele>199.073</ele>
        <time>2015-09-13T08:53:35Z</time>
      </trkpt>
      <trkpt lat="50.07866" lon="4.74369">
        <ele>189.052</ele>
        <time>2015-09-13T08:53:40Z</time>
      </trkpt>
      <trkpt lat="50.07874" lon="4.7436">
        <ele>191.05</ele>
        <time>2015-09-13T08:53:44Z</time>
      </trkpt>
      <trkpt lat="50.0788" lon="4.74349">
        <ele>189.021</ele>
        <time>2015-09-13T08:53:50Z</time>
      </trkpt>
      <trkpt lat="50.07887" lon="4.74338">
        <ele>184.088</ele>
        <time>2015-09-13T08:53:57Z</time>
      </trkpt>
      <trkpt lat="50.07895" lon="4.7433">
        <ele>184.024</ele>
        <time>2015-09-13T08:54:04Z</time>
      </trkpt>
      <trkpt lat="50.079" lon="4.74316">
        <ele>177.026</ele>
        <time>2015-09-13T08:54:11Z</time>
      </trkpt>
      <trkpt lat="50.07898" lon="4.743">
        <ele>179.008</ele>
        <time>2015-09-13T08:54:15Z</time>
      </trkpt>
      <trkpt lat="50.07895" lon="4.74285">
        <ele>180.019</ele>
        <time>2015-09-13T08:54:19Z</time>
      </trkpt>
      <trkpt lat="50.07893" lon="4.74269">
        <ele>187.088</ele>
        <time>2015-09-13T08:54:24Z</time>
      </trkpt>
      <trkpt lat="50.07892" lon="4.74253">
        <ele>189.036</ele>
        <time>2015-09-13T08:54:30Z</time>
      </trkpt>
      <trkpt lat="50.07885" lon="4.74242">
        <ele>181.099</ele>
        <time>2015-09-13T08:54:37Z</time>
      </trkpt>
      <trkpt lat="50.07878" lon="4.7423">
        <ele>184.073</ele>
        <time>2015-09-13T08:54:44Z</time>
      </trkpt>
      <trkpt lat="50.07876" lon="4.74216">
        <ele>185.052</ele>
        <time>2015-09-13T08:54:51Z</time>
      </trkpt>
      <trkpt lat="50.07872" lon="4.74203">
        <ele>182.04</ele>
        <time>2015-09-13T08:54:58Z</time>
      </trkpt>
      <trkpt lat="50.07868" lon="4.74189">
        <ele>182.061</ele>
        <time>2015-09-13T08:55:04Z</time>
      </trkpt>
      <trkpt lat="50.07865" lon="4.74174">
        <ele>175.031</ele>
        <time>2015-09-13T08:55:10Z</time>
      </trkpt>
      <trkpt lat="50.07861" lon="4.74159">
        <ele>174.061</ele>
        <time>2015-09-13T08:55:16Z</time>
      </trkpt>
      <trkpt lat="50.07864" lon="4.74144">
        <ele>178.007</ele>
        <time>2015-09-13T08:55:24Z</time>
      </trkpt>
      <trkpt lat="50.07871" lon="4.74134">
        <ele>178.008</ele>
        <time>2015-09-13T08:55:32Z</time>
      </trkpt>
      <trkpt lat="50.07879" lon="4.74126">
        <ele>179.074</ele>
        <time>2015-09-13T08:55:55Z</time>
      </trkpt>
      <trkpt lat="50.07887" lon="4.74121">
        <ele>175.063</ele>
        <time>2015-09-13T08:56:00Z</time>
      </trkpt>
      <trkpt lat="50.07896" lon="4.74119">
        <ele>178.041</ele>
        <time>2015-09-13T08:56:06Z</time>
      </trkpt>
      <trkpt lat="50.07906" lon="4.74117">
        <ele>180.064</ele>
        <time>2015-09-13T08:56:14Z</time>
      </trkpt>
      <trkpt lat="50.07913" lon="4.74105">
        <ele>177.048</ele>
        <time>2015-09-13T08:56:20Z</time>
      </trkpt>
      <trkpt lat="50.07924" lon="4.74102">
        <ele>184.027</ele>
        <time>2015-09-13T08:56:26Z</time>
      </trkpt>
      <trkpt lat="50.07933" lon="4.74099">
        <ele>190.095</ele>
        <time>2015-09-13T08:56:30Z</time>
      </trkpt>
      <trkpt lat="50.07942" lon="4.74095">
        <ele>188.046</ele>
        <time>2015-09-13T08:56:35Z</time>
      </trkpt>
      <trkpt lat="50.07951" lon="4.74092">
        <ele>194.081</ele>
        <time>2015-09-13T08:56:43Z</time>
      </trkpt>
      <trkpt lat="50.0796" lon="4.7409">
        <ele>197.061</ele>
        <time>2015-09-13T08:56:50Z</time>
      </trkpt>
      <trkpt lat="50.07969" lon="4.74088">
        <ele>199.017</ele>
        <time>2015-09-13T08:56:58Z</time>
      </trkpt>
      <trkpt lat="50.07977" lon="4.74079">
        <ele>197.008</ele>
        <time>2015-09-13T08:57:04Z</time>
      </trkpt>
      <trkpt lat="50.07985" lon="4.74071">
        <ele>193.059</ele>
        <time>2015-09-13T08:57:10Z</time>
      </trkpt>
      <trkpt lat="50.07993" lon="4.74063">
        <ele>192.058</ele>
        <time>2015-09-13T08:57:17Z</time>
      </trkpt>
      <trkpt lat="50.08001" lon="4.74056">
        <ele>190.096</ele>
        <time>2015-09-13T08:57:24Z</time>
      </trkpt>
      <trkpt lat="50.0801" lon="4.74055">
        <ele>192.039</ele>
        <time>2015-09-13T08:57:33Z</time>
      </trkpt>
      <trkpt lat="50.08019" lon="4.74048">
        <ele>193.093</ele>
        <time>2015-09-13T08:57:41Z</time>
      </trkpt>
      <trkpt lat="50.08028" lon="4.74044">
        <ele>192.092</ele>
        <time>2015-09-13T08:57:48Z</time>
      </trkpt>
      <trkpt lat="50.08038" lon="4.74039">
        <ele>195.08</ele>
        <time>2015-09-13T08:57:56Z</time>
      </trkpt>
      <trkpt lat="50.08047" lon="4.74032">
        <ele>197.031</ele>
        <time>2015-09-13T08:58:05Z</time>
      </trkpt>
      <trkpt lat="50.08051" lon="4.74019">
        <ele>199.079</ele>
        <time>2015-09-13T08:58:13Z</time>
      </trkpt>
      <trkpt lat="50.08055" lon="4.74005">
        <ele>200.005</ele>
        <time>2015-09-13T08:58:22Z</time>
      </trkpt>
      <trkpt lat="50.08058" lon="4.73991">
        <ele>201.025</ele>
        <time>2015-09-13T08:58:30Z</time>
      </trkpt>
      <trkpt lat="50.08062" lon="4.73977">
        <ele>204.008</ele>
        <time>2015-09-13T08:58:40Z</time>
      </trkpt>
      <trkpt lat="50.08064" lon="4.73961">
        <ele>204.068</ele>
        <time>2015-09-13T08:58:47Z</time>
      </trkpt>
      <trkpt lat="50.08067" lon="4.73948">
        <ele>205.027</ele>
        <time>2015-09-13T08:58:53Z</time>
      </trkpt>
      <trkpt lat="50.08071" lon="4.73935">
        <ele>203.015</ele>
        <time>2015-09-13T08:59:00Z</time>
      </trkpt>
      <trkpt lat="50.08078" lon="4.73924">
        <ele>199.068</ele>
        <time>2015-09-13T08:59:07Z</time>
      </trkpt>
      <trkpt lat="50.08086" lon="4.73914">
        <ele>204.062</ele>
        <time>2015-09-13T08:59:15Z</time>
      </trkpt>
      <trkpt lat="50.0809" lon="4.739">
        <ele>207.031</ele>
        <time>2015-09-13T08:59:29Z</time>
      </trkpt>
      <trkpt lat="50.08096" lon="4.73889">
        <ele>205.069</ele>
        <time>2015-09-13T08:59:36Z</time>
      </trkpt>
      <trkpt lat="50.08101" lon="4.73877">
        <ele>204.07</ele>
        <time>2015-09-13T08:59:43Z</time>
      </trkpt>
      <trkpt lat="50.08107" lon="4.73865">
        <ele>206.056</ele>
        <time>2015-09-13T08:59:50Z</time>
      </trkpt>
      <trkpt lat="50.08109" lon="4.73851">
        <ele>203.059</ele>
        <time>2015-09-13T09:00:01Z</time>
      </trkpt>
      <trkpt lat="50.08114" lon="4.73838">
        <ele>206.014</ele>
        <time>2015-09-13T09:00:08Z</time>
      </trkpt>
      <trkpt lat="50.08118" lon="4.73826">
        <ele>208.008</ele>
        <time>2015-09-13T09:00:15Z</time>
      </trkpt>
      <trkpt lat="50.08118" lon="4.73811">
        <ele>206.016</ele>
        <time>2015-09-13T09:00:21Z</time>
      </trkpt>
      <trkpt lat="50.0812" lon="4.73796">
        <ele>206.095</ele>
        <time>2015-09-13T09:00:29Z</time>
      </trkpt>
      <trkpt lat="50.08123" lon="4.73782">
        <ele>208.013</ele>
        <time>2015-09-13T09:00:38Z</time>
      </trkpt>
      <trkpt lat="50.08126" lon="4.73768">
        <ele>206.086</ele>
        <time>2015-09-13T09:00:45Z</time>
      </trkpt>
      <trkpt lat="50.0813" lon="4.73754">
        <ele>206.08</ele>
        <time>2015-09-13T09:00:53Z</time>
      </trkpt>
      <trkpt lat="50.08133" lon="4.73741">
        <ele>207.069</ele>
        <time>2015-09-13T09:01:00Z</time>
      </trkpt>
      <trkpt lat="50.08137" lon="4.73728">
        <ele>204.017</ele>
        <time>2015-09-13T09:01:07Z</time>
      </trkpt>
      <trkpt lat="50.08138" lon="4.73712">
        <ele>202.068</ele>
        <time>2015-09-13T09:01:14Z</time>
      </trkpt>
      <trkpt lat="50.0814" lon="4.73698">
        <ele>200.037</ele>
        <time>2015-09-13T09:01:20Z</time>
      </trkpt>
      <trkpt lat="50.08145" lon="4.73684">
        <ele>199.049</ele>
        <time>2015-09-13T09:01:27Z</time>
      </trkpt>
      <trkpt lat="50.08149" lon="4.73671">
        <ele>199.013</ele>
        <time>2015-09-13T09:01:34Z</time>
      </trkpt>
      <trkpt lat="50.08154" lon="4.73658">
        <ele>202.008</ele>
        <time>2015-09-13T09:01:42Z</time>
      </trkpt>
      <trkpt lat="50.0816" lon="4.73645">
        <ele>201.034</ele>
        <time>2015-09-13T09:01:49Z</time>
      </trkpt>
      <trkpt lat="50.08164" lon="4.73633">
        <ele>199.013</ele>
        <time>2015-09-13T09:01:56Z</time>
      </trkpt>
      <trkpt lat="50.08173" lon="4.73632">
        <ele>212.031</ele>
        <time>2015-09-13T09:02:21Z</time>
      </trkpt>
      <trkpt lat="50.08177" lon="4.73617">
        <ele>204.044</ele>
        <time>2015-09-13T09:02:26Z</time>
      </trkpt>
      <trkpt lat="50.08178" lon="4.73602">
        <ele>202.058</ele>
        <time>2015-09-13T09:02:32Z</time>
      </trkpt>
      <trkpt lat="50.08182" lon="4.73588">
        <ele>200.017</ele>
        <time>2015-09-13T09:02:37Z</time>
      </trkpt>
      <trkpt lat="50.08184" lon="4.73573">
        <ele>196.035</ele>
        <time>2015-09-13T09:02:42Z</time>
      </trkpt>
      <trkpt lat="50.08186" lon="4.73559">
        <ele>198.096</ele>
        <time>2015-09-13T09:02:49Z</time>
      </trkpt>
      <trkpt lat="50.08187" lon="4.73545">
        <ele>198.026</ele>
        <time>2015-09-13T09:02:56Z</time>
      </trkpt>
      <trkpt lat="50.08191" lon="4.73532">
        <ele>199.047</ele>
        <time>2015-09-13T09:03:03Z</time>
      </trkpt>
      <trkpt lat="50.08193" lon="4.73516">
        <ele>195.011</ele>
        <time>2015-09-13T09:03:11Z</time>
      </trkpt>
      <trkpt lat="50.08197" lon="4.73502">
        <ele>194.008</ele>
        <time>2015-09-13T09:03:19Z</time>
      </trkpt>
      <trkpt lat="50.08201" lon="4.73488">
        <ele>195.053</ele>
        <time>2015-09-13T09:03:26Z</time>
      </trkpt>
      <trkpt lat="50.08207" lon="4.73476">
        <ele>195.042</ele>
        <time>2015-09-13T09:03:33Z</time>
      </trkpt>
      <trkpt lat="50.08211" lon="4.73462">
        <ele>194.03</ele>
        <time>2015-09-13T09:03:41Z</time>
      </trkpt>
      <trkpt lat="50.08216" lon="4.73449">
        <ele>192.053</ele>
        <time>2015-09-13T09:03:49Z</time>
      </trkpt>
      <trkpt lat="50.08223" lon="4.73436">
        <ele>189.047</ele>
        <time>2015-09-13T09:03:56Z</time>
      </trkpt>
      <trkpt lat="50.08227" lon="4.73422">
        <ele>186.026</ele>
        <time>2015-09-13T09:04:04Z</time>
      </trkpt>
      <trkpt lat="50.08222" lon="4.7341">
        <ele>185.024</ele>
        <time>2015-09-13T09:04:11Z</time>
      </trkpt>
      <trkpt lat="50.08213" lon="4.73402">
        <ele>185.095</ele>
        <time>2015-09-13T09:04:18Z</time>
      </trkpt>
      <trkpt lat="50.08205" lon="4.73394">
        <ele>188.094</ele>
        <time>2015-09-13T09:04:23Z</time>
      </trkpt>
      <trkpt lat="50.08196" lon="4.7339">
        <ele>190.057</ele>
        <time>2015-09-13T09:04:29Z</time>
      </trkpt>
      <trkpt lat="50.08187" lon="4.73398">
        <ele>189.022</ele>
        <time>2015-09-13T09:04:36Z</time>
      </trkpt>
      <trkpt lat="50.08178" lon="4.73401">
        <ele>189.008</ele>
        <time>2015-09-13T09:04:43Z</time>
      </trkpt>
      <trkpt lat="50.08169" lon="4.73404">
        <ele>189.03</ele>
        <time>2015-09-13T09:04:48Z</time>
      </trkpt>
      <trkpt lat="50.08159" lon="4.73406">
        <ele>192.019</ele>
        <time>2015-09-13T09:04:56Z</time>
      </trkpt>
      <trkpt lat="50.08151" lon="4.73409">
        <ele>190.077</ele>
        <time>2015-09-13T09:05:03Z</time>
      </trkpt>
      <trkpt lat="50.08141" lon="4.73413">
        <ele>195.02</ele>
        <time>2015-09-13T09:05:11Z</time>
      </trkpt>
      <trkpt lat="50.08133" lon="4.7342">
        <ele>195.044</ele>
        <time>2015-09-13T09:05:23Z</time>
      </trkpt>
      <trkpt lat="50.08123" lon="4.73422">
        <ele>194.053</ele>
        <time>2015-09-13T09:05:31Z</time>
      </trkpt>
      <trkpt lat="50.08114" lon="4.73422">
        <ele>197.031</ele>
        <time>2015-09-13T09:05:40Z</time>
      </trkpt>
      <trkpt lat="50.0811" lon="4.73409">
        <ele>190.072</ele>
        <time>2015-09-13T09:05:51Z</time>
      </trkpt>
      <trkpt lat="50.08111" lon="4.73395">
        <ele>188.034</ele>
        <time>2015-09-13T09:05:59Z</time>
      </trkpt>
      <trkpt lat="50.08111" lon="4.7338">
        <ele>187.055</ele>
        <time>2015-09-13T09:06:06Z</time>
      </trkpt>
      <trkpt lat="50.08111" lon="4.73365">
        <ele>185.01</ele>
        <time>2015-09-13T09:06:12Z</time>
      </trkpt>
      <trkpt lat="50.0811" lon="4.7335">
        <ele>187.008</ele>
        <time>2015-09-13T09:06:19Z</time>
      </trkpt>
      <trkpt lat="50.08107" lon="4.73336">
        <ele>187.064</ele>
        <time>2015-09-13T09:06:26Z</time>
      </trkpt>
      <trkpt lat="50.08109" lon="4.73321">
        <ele>183.023</ele>
        <time>2015-09-13T09:06:34Z</time>
      </trkpt>
      <trkpt lat="50.08112" lon="4.73306">
        <ele>184.041</ele>
        <time>2015-09-13T09:06:41Z</time>
      </trkpt>
      <trkpt lat="50.08115" lon="4.73292">
        <ele>180.024</ele>
        <time>2015-09-13T09:06:48Z</time>
      </trkpt>
      <trkpt lat="50.08117" lon="4.73277">
        <ele>181.088</ele>
        <time>2015-09-13T09:06:55Z</time>
      </trkpt>
      <trkpt lat="50.08118" lon="4.73263">
        <ele>178.077</ele>
        <time>2015-09-13T09:07:01Z</time>
      </trkpt>
      <trkpt lat="50.08119" lon="4.73249">
        <ele>173.045</ele>
        <time>2015-09-13T09:07:07Z</time>
      </trkpt>
      <trkpt lat="50.08119" lon="4.73234">
        <ele>176.096</ele>
        <time>2015-09-13T09:07:13Z</time>
      </trkpt>
      <trkpt lat="50.0812" lon="4.73218">
        <ele>176.088</ele>
        <time>2015-09-13T09:07:21Z</time>
      </trkpt>
      <trkpt lat="50.08121" lon="4.73204">
        <ele>174.024</ele>
        <time>2015-09-13T09:07:29Z</time>
      </trkpt>
      <trkpt lat="50.0812" lon="4.73187">
        <ele>176.026</ele>
        <time>2015-09-13T09:07:36Z</time>
      </trkpt>
      <trkpt lat="50.0812" lon="4.73172">
        <ele>177.008</ele>
        <time>2015-09-13T09:07:42Z</time>
      </trkpt>
      <trkpt lat="50.0812" lon="4.73156">
        <ele>178.069</ele>
        <time>2015-09-13T09:07:49Z</time>
      </trkpt>
      <trkpt lat="50.08122" lon="4.73141">
        <ele>174.088</ele>
        <time>2015-09-13T09:07:56Z</time>
      </trkpt>
      <trkpt lat="50.08126" lon="4.73127">
        <ele>169.056</ele>
        <time>2015-09-13T09:08:03Z</time>
      </trkpt>
      <trkpt lat="50.08128" lon="4.73113">
        <ele>167.049</ele>
        <time>2015-09-13T09:08:10Z</time>
      </trkpt>
      <trkpt lat="50.0813" lon="4.73098">
        <ele>166.053</ele>
        <time>2015-09-13T09:08:18Z</time>
      </trkpt>
      <trkpt lat="50.0813" lon="4.73083">
        <ele>176.012</ele>
        <time>2015-09-13T09:08:25Z</time>
      </trkpt>
      <trkpt lat="50.08137" lon="4.73075">
        <ele>178.06</ele>
        <time>2015-09-13T09:08:40Z</time>
      </trkpt>
      <trkpt lat="50.08146" lon="4.73071">
        <ele>179.031</ele>
        <time>2015-09-13T09:08:45Z</time>
      </trkpt>
      <trkpt lat="50.08152" lon="4.73058">
        <ele>176.033</ele>
        <time>2015-09-13T09:08:53Z</time>
      </trkpt>
      <trkpt lat="50.08156" lon="4.73044">
        <ele>172.023</ele>
        <time>2015-09-13T09:08:59Z</time>
      </trkpt>
      <trkpt lat="50.08151" lon="4.73031">
        <ele>168.015</ele>
        <time>2015-09-13T09:09:07Z</time>
      </trkpt>
      <trkpt lat="50.08142" lon="4.7303">
        <ele>167.008</ele>
        <time>2015-09-13T09:09:15Z</time>
      </trkpt>
      <trkpt lat="50.08132" lon="4.73026">
        <ele>170.094</ele>
        <time>2015-09-13T09:09:23Z</time>
      </trkpt>
      <trkpt lat="50.08124" lon="4.73022">
        <ele>177.013</ele>
        <time>2015-09-13T09:09:30Z</time>
      </trkpt>
      <trkpt lat="50.07019" lon="4.72994">
        <ele>164.031</ele>
        <time>2015-09-13T09:27:56Z</time>
      </trkpt>
      <trkpt lat="50.07015" lon="4.73007">
        <ele>170.094</ele>
        <time>2015-09-13T09:27:57Z</time>
      </trkpt>
      <trkpt lat="50.07013" lon="4.73024">
        <ele>175.088</ele>
        <time>2015-09-13T09:28:00Z</time>
      </trkpt>
    </trkseg>
  </trk>
</gpx>